Time,TemperatureF,DewpointF,PressureIn,WindDirection,WindDirectionDegrees,WindSpeedMPH,WindSpeedGustMPH,Humidity,HourlyPrecipIn,Conditions,Clouds,dailyrainin,SoftwareType,DateUTC
2013-01-17 00:01:00,50.7,43.8,29.65,West,270,0.0,10.5,77,0.00,,,0.00,VWS V14.00,2013-01-16 22:01:00,
2013-01-17 00:02:00,50.7,43.8,29.65,West,270,0.0,10.5,77,0.00,,,0.00,VWS V14.00,2013-01-16 22:02:00,
2013-01-17 00:06:00,50.7,43.8,29.65,West,270,3.8,3.8,77,0.00,,,0.00,VWS V14.00,2013-01-16 22:06:00,
2013-01-17 00:07:00,50.7,43.8,29.65,West,270,3.8,3.8,77,0.00,,,0.00,VWS V14.00,2013-01-16 22:07:00,
2013-01-17 00:11:00,50.7,43.8,29.67,WNW,292,0.6,0.6,77,0.00,,,0.00,VWS V14.00,2013-01-16 22:11:00,
2013-01-17 00:12:00,50.7,43.8,29.67,NNW,338,0.0,0.6,77,0.00,,,0.00,VWS V14.00,2013-01-16 22:12:00,
2013-01-17 00:16:00,50.5,43.6,29.68,WSW,248,9.1,9.1,77,0.00,,,0.00,VWS V14.00,2013-01-16 22:16:00,
2013-01-17 00:17:00,50.5,43.6,29.68,WSW,248,9.1,9.1,77,0.00,,,0.00,VWS V14.00,2013-01-16 22:17:00,
2013-01-17 00:21:00,50.5,43.6,29.67,SW,225,5.1,5.1,77,0.00,,,0.00,VWS V14.00,2013-01-16 22:21:00,
2013-01-17 00:22:00,50.5,43.6,29.67,SW,225,5.1,5.1,77,0.00,,,0.00,VWS V14.00,2013-01-16 22:22:00,
2013-01-17 00:26:00,50.5,43.6,29.68,SW,225,3.5,3.5,77,0.00,,,0.00,VWS V14.00,2013-01-16 22:26:00,
2013-01-17 00:27:00,50.5,43.6,29.68,SW,225,3.5,3.5,77,0.00,,,0.00,VWS V14.00,2013-01-16 22:27:00,
2013-01-17 00:28:00,50.5,43.6,29.68,South,180,0.0,3.5,77,0.00,,,0.00,VWS V14.00,2013-01-16 22:28:00,
2013-01-17 00:31:00,50.3,43.4,29.68,SW,225,5.3,5.3,77,0.00,,,0.00,VWS V14.00,2013-01-16 22:31:00,
2013-01-17 00:32:00,50.3,43.4,29.68,SW,225,5.3,5.3,77,0.00,,,0.00,VWS V14.00,2013-01-16 22:32:00,
2013-01-17 00:33:00,50.3,43.4,29.68,SW,225,5.3,5.3,77,0.00,,,0.00,VWS V14.00,2013-01-16 22:33:00,
2013-01-17 00:36:00,50.3,43.4,29.68,WSW,248,5.5,7.3,77,0.00,,,0.00,VWS V14.00,2013-01-16 22:36:00,
2013-01-17 00:37:00,50.3,43.4,29.68,WSW,248,5.5,7.3,77,0.00,,,0.00,VWS V14.00,2013-01-16 22:37:00,
2013-01-17 00:38:00,50.3,43.4,29.67,WSW,248,5.5,7.3,77,0.00,,,0.00,VWS V14.00,2013-01-16 22:38:00,
2013-01-17 00:42:00,50.1,43.2,29.67,WSW,248,4.2,4.2,77,0.00,,,1.31,VWS V14.00,2013-01-16 22:42:00,
2013-01-17 00:43:00,50.1,43.2,29.67,West,270,4.0,4.2,77,0.00,,,0.00,VWS V14.00,2013-01-16 22:43:00,
2013-01-17 00:47:00,50.1,43.2,29.67,WSW,248,5.8,6.2,77,0.00,,,0.00,VWS V14.00,2013-01-16 22:47:00,
2013-01-17 00:48:00,50.1,43.2,29.67,WSW,248,5.8,6.2,77,0.00,,,0.00,VWS V14.00,2013-01-16 22:48:00,
2013-01-17 00:52:00,49.8,42.9,29.66,SSW,202,7.6,7.6,77,0.00,,,0.00,VWS V14.00,2013-01-16 22:52:00,
2013-01-17 00:53:00,49.8,42.9,29.66,SSW,202,7.6,7.6,77,0.00,,,0.00,VWS V14.00,2013-01-16 22:53:00,
2013-01-17 00:57:00,49.8,42.9,29.67,SSW,202,4.0,4.0,77,0.00,,,0.00,VWS V14.00,2013-01-16 22:57:00,
2013-01-17 00:58:00,49.8,42.9,29.67,SW,225,3.5,4.0,77,0.00,,,0.00,VWS V14.00,2013-01-16 22:58:00,
2013-01-17 01:02:00,49.6,42.7,29.67,WSW,248,4.4,4.4,77,0.00,,,0.00,VWS V14.00,2013-01-16 23:02:00,
2013-01-17 01:03:00,49.6,42.7,29.67,WSW,248,4.4,4.4,77,0.00,,,0.00,VWS V14.00,2013-01-16 23:03:00,
2013-01-17 01:07:00,49.6,42.7,29.67,WSW,248,3.1,3.8,77,0.00,,,0.00,VWS V14.00,2013-01-16 23:07:00,
2013-01-17 01:08:00,49.6,42.7,29.67,SSW,202,6.9,6.9,77,0.00,,,0.00,VWS V14.00,2013-01-16 23:08:00,
2013-01-17 01:12:00,49.2,42.3,29.67,West,270,6.7,6.7,77,0.00,,,0.00,VWS V14.00,2013-01-16 23:12:00,
2013-01-17 01:13:00,49.2,42.3,29.67,SSW,202,7.3,7.3,77,0.00,,,0.00,VWS V14.00,2013-01-16 23:13:00,
2013-01-17 01:17:00,49.2,42.3,29.67,SW,225,7.6,7.6,77,0.00,,,0.00,VWS V14.00,2013-01-16 23:17:00,
2013-01-17 01:18:00,49.2,42.3,29.67,SW,225,7.6,7.6,77,0.00,,,0.00,VWS V14.00,2013-01-16 23:18:00,
2013-01-17 01:22:00,49.2,42.0,29.67,SW,225,6.4,6.4,76,0.00,,,0.00,VWS V14.00,2013-01-16 23:22:00,
2013-01-17 01:23:00,49.2,42.0,29.67,SW,225,6.4,6.4,76,0.00,,,0.00,VWS V14.00,2013-01-16 23:23:00,
2013-01-17 01:27:00,49.1,41.9,29.68,WSW,248,8.2,8.2,76,0.00,,,0.00,VWS V14.00,2013-01-16 23:27:00,
2013-01-17 01:28:00,49.1,41.9,29.67,WSW,248,4.6,8.2,76,0.00,,,0.00,VWS V14.00,2013-01-16 23:28:00,
2013-01-17 01:32:00,48.9,41.7,29.67,WSW,248,2.9,6.9,76,0.00,,,0.00,VWS V14.00,2013-01-16 23:32:00,
2013-01-17 01:33:00,48.9,41.7,29.67,WSW,248,2.9,6.9,76,0.00,,,0.00,VWS V14.00,2013-01-16 23:33:00,
2013-01-17 01:37:00,48.9,41.7,29.67,SW,225,5.8,5.8,76,0.00,,,0.00,VWS V14.00,2013-01-16 23:37:00,
2013-01-17 01:38:00,48.9,41.7,29.67,SW,225,5.8,5.8,76,0.00,,,0.00,VWS V14.00,2013-01-16 23:38:00,
2013-01-17 01:42:00,48.7,41.5,29.67,SSW,202,4.9,4.9,76,0.00,,,0.00,VWS V14.00,2013-01-16 23:42:00,
2013-01-17 01:43:00,48.7,41.5,29.67,SSW,202,4.9,4.9,76,0.00,,,0.00,VWS V14.00,2013-01-16 23:43:00,
2013-01-17 01:47:00,48.7,41.5,29.68,SW,225,8.5,8.5,76,0.00,,,0.00,VWS V14.00,2013-01-16 23:47:00,
2013-01-17 01:48:00,48.7,41.5,29.68,SW,225,8.5,8.5,76,0.00,,,0.00,VWS V14.00,2013-01-16 23:48:00,
2013-01-17 01:49:00,48.7,41.5,29.68,SW,225,8.5,8.5,76,0.00,,,0.00,VWS V14.00,2013-01-16 23:49:00,
2013-01-17 01:52:00,48.7,41.5,29.68,South,180,6.7,6.9,76,0.00,,,0.00,VWS V14.00,2013-01-16 23:52:00,
2013-01-17 01:53:00,48.7,41.5,29.68,South,180,6.7,6.9,76,0.00,,,0.00,VWS V14.00,2013-01-16 23:53:00,
2013-01-17 01:54:00,48.5,41.3,29.69,WSW,248,6.9,6.9,76,0.00,,,0.00,VWS V14.00,2013-01-16 23:54:00,
2013-01-17 01:57:00,48.5,41.3,29.69,SW,225,4.2,8.7,76,0.00,,,0.00,VWS V14.00,2013-01-16 23:57:00,
2013-01-17 01:58:00,48.5,41.3,29.69,SW,225,4.2,8.7,76,0.00,,,0.00,VWS V14.00,2013-01-16 23:58:00,
2013-01-17 01:59:00,48.5,41.3,29.69,SW,225,4.2,8.7,76,0.00,,,0.00,VWS V14.00,2013-01-16 23:59:00,
2013-01-17 02:02:00,48.5,41.3,29.69,SW,225,3.1,3.1,76,0.00,,,0.00,VWS V14.00,2013-01-17 00:02:00,
2013-01-17 02:03:00,48.5,41.3,29.69,SW,225,3.1,3.1,76,0.00,,,0.00,VWS V14.00,2013-01-17 00:03:00,
2013-01-17 02:04:00,48.5,41.3,29.69,SW,225,3.1,3.1,76,0.00,,,0.00,VWS V14.00,2013-01-17 00:04:00,
2013-01-17 02:07:00,48.3,41.1,29.70,SW,225,3.1,5.1,76,0.00,,,0.00,VWS V14.00,2013-01-17 00:07:00,
2013-01-17 02:08:00,48.3,41.1,29.70,SW,225,3.1,5.1,76,0.00,,,0.00,VWS V14.00,2013-01-17 00:08:00,
2013-01-17 02:09:00,48.3,41.1,29.69,SSW,202,1.7,5.1,76,0.00,,,0.00,VWS V14.00,2013-01-17 00:09:00,
2013-01-17 02:12:00,48.3,41.1,29.70,SW,225,2.0,2.0,76,0.00,,,0.00,VWS V14.00,2013-01-17 00:12:00,
2013-01-17 02:13:00,48.3,41.1,29.70,SW,225,2.0,2.0,76,0.00,,,0.00,VWS V14.00,2013-01-17 00:13:00,
2013-01-17 02:14:00,48.3,41.1,29.70,SW,225,2.0,2.0,76,0.00,,,0.00,VWS V14.00,2013-01-17 00:14:00,
2013-01-17 02:17:00,48.3,41.1,29.69,West,270,0.0,0.0,76,0.00,,,0.00,VWS V14.00,2013-01-17 00:17:00,
2013-01-17 02:18:00,48.3,41.1,29.69,West,270,0.0,0.0,76,0.00,,,0.00,VWS V14.00,2013-01-17 00:18:00,
2013-01-17 02:19:00,48.3,41.1,29.69,West,270,0.0,0.0,76,0.00,,,0.00,VWS V14.00,2013-01-17 00:19:00,
2013-01-17 02:23:00,48.2,41.0,29.70,WNW,292,0.0,0.0,76,0.00,,,0.00,VWS V14.00,2013-01-17 00:23:00,
2013-01-17 02:24:00,48.3,41.1,29.69,WNW,292,0.0,0.0,76,0.00,,,0.00,VWS V14.00,2013-01-17 00:24:00,
2013-01-17 02:28:00,48.2,41.0,29.69,South,180,0.0,0.0,76,0.00,,,0.00,VWS V14.00,2013-01-17 00:28:00,
2013-01-17 02:29:00,48.2,41.0,29.69,South,180,0.0,0.0,76,0.00,,,0.00,VWS V14.00,2013-01-17 00:29:00,
2013-01-17 02:33:00,48.0,40.8,29.69,South,180,0.0,0.0,76,0.00,,,0.00,VWS V14.00,2013-01-17 00:33:00,
2013-01-17 02:34:00,48.0,40.8,29.69,ESE,112,0.0,0.0,76,0.00,,,0.00,VWS V14.00,2013-01-17 00:34:00,
2013-01-17 02:38:00,48.0,40.8,29.69,NE,45,0.0,0.0,76,0.00,,,0.00,VWS V14.00,2013-01-17 00:38:00,
2013-01-17 02:39:00,48.0,40.8,29.69,NE,45,0.0,0.0,76,0.00,,,0.00,VWS V14.00,2013-01-17 00:39:00,
2013-01-17 02:43:00,48.0,40.8,29.69,NE,45,0.0,0.0,76,0.00,,,0.00,VWS V14.00,2013-01-17 00:43:00,
2013-01-17 02:44:00,48.0,40.8,29.69,NW,315,0.0,0.0,76,0.00,,,0.00,VWS V14.00,2013-01-17 00:44:00,
2013-01-17 02:48:00,48.0,40.8,29.69,NW,315,0.0,0.0,76,0.00,,,0.00,VWS V14.00,2013-01-17 00:48:00,
2013-01-17 02:49:00,48.0,40.8,29.69,North,0,1.3,1.3,76,0.00,,,0.00,VWS V14.00,2013-01-17 00:49:00,
2013-01-17 02:53:00,47.8,41.0,29.68,WNW,292,0.0,1.3,77,0.00,,,0.00,VWS V14.00,2013-01-17 00:53:00,
2013-01-17 02:54:00,47.8,41.0,29.68,WNW,292,0.0,1.3,77,0.00,,,0.00,VWS V14.00,2013-01-17 00:54:00,
2013-01-17 02:58:00,47.8,41.0,29.68,SW,225,0.0,0.0,77,0.00,,,0.00,VWS V14.00,2013-01-17 00:58:00,
2013-01-17 02:59:00,47.8,41.0,29.68,SW,225,0.0,0.0,77,0.00,,,0.00,VWS V14.00,2013-01-17 00:59:00,
2013-01-17 03:03:00,47.6,40.8,29.68,SSE,158,0.0,0.0,77,0.00,,,0.00,VWS V14.00,2013-01-17 01:03:00,
2013-01-17 03:04:00,47.6,40.8,29.68,SSE,158,0.0,0.0,77,0.00,,,0.00,VWS V14.00,2013-01-17 01:04:00,
2013-01-17 03:08:00,47.4,40.6,29.67,SSE,158,0.0,0.0,77,0.00,,,0.00,VWS V14.00,2013-01-17 01:08:00,
2013-01-17 03:09:00,47.4,40.6,29.67,SSE,158,0.0,0.0,77,0.00,,,0.00,VWS V14.00,2013-01-17 01:09:00,
2013-01-17 03:13:00,47.4,40.6,29.67,SSE,158,0.0,0.0,77,0.00,,,0.00,VWS V14.00,2013-01-17 01:13:00,
2013-01-17 03:14:00,47.4,40.6,29.67,SSE,158,0.0,0.0,77,0.00,,,0.00,VWS V14.00,2013-01-17 01:14:00,
2013-01-17 03:15:00,47.4,40.6,29.68,SSE,158,0.0,0.0,77,0.00,,,0.00,VWS V14.00,2013-01-17 01:15:00,
2013-01-17 03:18:00,47.3,40.5,29.68,NW,315,0.0,0.8,77,0.00,,,0.00,VWS V14.00,2013-01-17 01:18:00,
2013-01-17 03:19:00,47.3,40.5,29.68,NW,315,0.0,0.8,77,0.00,,,0.00,VWS V14.00,2013-01-17 01:19:00,
2013-01-17 03:20:00,47.3,40.5,29.68,NW,315,0.0,0.8,77,0.00,,,0.00,VWS V14.00,2013-01-17 01:20:00,
2013-01-17 03:23:00,47.3,40.5,29.68,NW,315,1.7,1.7,77,0.00,,,0.00,VWS V14.00,2013-01-17 01:23:00,
2013-01-17 03:24:00,47.3,40.5,29.68,NW,315,1.7,1.7,77,0.00,,,0.00,VWS V14.00,2013-01-17 01:24:00,
2013-01-17 03:25:00,47.3,40.5,29.68,NW,315,1.7,1.7,77,0.00,,,0.00,VWS V14.00,2013-01-17 01:25:00,
2013-01-17 03:28:00,47.3,40.5,29.68,NNW,338,0.0,1.3,77,0.00,,,0.00,VWS V14.00,2013-01-17 01:28:00,
2013-01-17 03:29:00,47.3,40.5,29.68,NNW,338,0.0,1.3,77,0.00,,,0.00,VWS V14.00,2013-01-17 01:29:00,
2013-01-17 03:30:00,47.1,40.3,29.68,North,0,0.0,1.3,77,0.00,,,0.00,VWS V14.00,2013-01-17 01:30:00,
2013-01-17 03:33:00,47.1,40.3,29.68,North,0,0.0,0.0,77,0.00,,,0.00,VWS V14.00,2013-01-17 01:33:00,
2013-01-17 03:34:00,47.1,40.3,29.68,North,0,0.0,0.0,77,0.00,,,0.00,VWS V14.00,2013-01-17 01:34:00,
2013-01-17 03:35:00,47.1,40.3,29.68,North,0,0.0,0.0,77,0.00,,,0.00,VWS V14.00,2013-01-17 01:35:00,
2013-01-17 03:38:00,47.1,40.6,29.68,North,0,0.0,0.0,78,0.00,,,0.00,VWS V14.00,2013-01-17 01:38:00,
2013-01-17 03:39:00,47.1,40.6,29.68,North,0,0.0,0.0,78,0.00,,,0.00,VWS V14.00,2013-01-17 01:39:00,
2013-01-17 03:40:00,47.1,40.6,29.68,North,0,0.0,0.0,78,0.00,,,0.00,VWS V14.00,2013-01-17 01:40:00,
2013-01-17 03:43:00,47.1,40.6,29.68,North,0,0.0,0.0,78,0.00,,,0.00,VWS V14.00,2013-01-17 01:43:00,
2013-01-17 03:44:00,47.1,40.6,29.68,North,0,0.0,0.0,78,0.00,,,0.00,VWS V14.00,2013-01-17 01:44:00,
2013-01-17 03:45:00,47.1,40.6,29.68,North,0,0.0,0.0,78,0.00,,,0.00,VWS V14.00,2013-01-17 01:45:00,
2013-01-17 03:48:00,47.1,40.6,29.68,North,0,0.0,0.0,78,0.00,,,0.00,VWS V14.00,2013-01-17 01:48:00,
2013-01-17 03:49:00,47.1,40.6,29.68,North,0,0.0,0.0,78,0.00,,,0.00,VWS V14.00,2013-01-17 01:49:00,
2013-01-17 03:50:00,47.1,40.6,29.69,North,0,0.0,0.0,78,0.00,,,0.00,VWS V14.00,2013-01-17 01:50:00,
2013-01-17 03:53:00,46.9,40.4,29.68,North,0,0.0,0.0,78,0.00,,,0.00,VWS V14.00,2013-01-17 01:53:00,
2013-01-17 03:54:00,46.9,40.4,29.68,North,0,0.0,0.0,78,0.00,,,0.00,VWS V14.00,2013-01-17 01:54:00,
2013-01-17 03:55:00,46.9,40.4,29.68,North,0,0.0,0.0,78,0.00,,,0.00,VWS V14.00,2013-01-17 01:55:00,
2013-01-17 03:58:00,46.9,40.4,29.69,North,0,0.0,0.0,78,0.00,,,0.00,VWS V14.00,2013-01-17 01:58:00,
2013-01-17 03:59:00,46.9,40.4,29.69,North,0,0.0,0.0,78,0.00,,,0.00,VWS V14.00,2013-01-17 01:59:00,
2013-01-17 04:00:00,46.9,40.4,29.68,North,0,0.0,0.0,78,0.00,,,0.00,VWS V14.00,2013-01-17 02:00:00,
2013-01-17 04:03:00,46.9,40.7,29.68,NNE,22,0.8,1.1,79,0.00,,,0.00,VWS V14.00,2013-01-17 02:03:00,
2013-01-17 04:04:00,46.9,40.7,29.68,NNE,22,0.8,1.1,79,0.00,,,0.00,VWS V14.00,2013-01-17 02:04:00,
2013-01-17 04:05:00,46.7,40.5,29.68,NNE,22,0.8,1.1,79,0.00,,,0.00,VWS V14.00,2013-01-17 02:05:00,
2013-01-17 04:08:00,46.7,40.5,29.68,NNE,22,2.4,2.4,79,0.00,,,0.00,VWS V14.00,2013-01-17 02:08:00,
2013-01-17 04:09:00,46.7,40.5,29.68,NNE,22,2.4,2.4,79,0.00,,,0.00,VWS V14.00,2013-01-17 02:09:00,
2013-01-17 04:10:00,46.5,40.3,29.68,NNW,338,1.3,1.3,79,0.00,,,0.00,VWS V14.00,2013-01-17 02:10:00,
2013-01-17 04:13:00,46.5,40.3,29.68,North,0,2.0,2.0,79,0.00,,,0.00,VWS V14.00,2013-01-17 02:13:00,
2013-01-17 04:14:00,46.5,40.3,29.68,North,0,1.5,2.0,79,0.00,,,0.00,VWS V14.00,2013-01-17 02:14:00,
2013-01-17 04:15:00,46.5,40.3,29.68,North,0,1.5,1.5,79,0.00,,,0.00,VWS V14.00,2013-01-17 02:15:00,
2013-01-17 04:18:00,46.5,40.3,29.69,North,0,0.0,1.5,79,0.00,,,0.00,VWS V14.00,2013-01-17 02:18:00,
2013-01-17 04:19:00,46.4,40.2,29.69,North,0,0.0,1.5,79,0.00,,,0.00,VWS V14.00,2013-01-17 02:19:00,
2013-01-17 04:20:00,46.4,40.2,29.69,North,0,0.0,0.0,79,0.00,,,0.00,VWS V14.00,2013-01-17 02:20:00,
2013-01-17 04:23:00,46.2,40.1,29.69,NNE,22,0.0,0.0,79,0.00,,,0.00,VWS V14.00,2013-01-17 02:23:00,
2013-01-17 04:24:00,46.2,40.1,29.69,NNE,22,0.0,0.0,79,0.00,,,0.00,VWS V14.00,2013-01-17 02:24:00,
2013-01-17 04:25:00,46.2,40.1,29.69,NNE,22,0.0,0.0,79,0.00,,,0.00,VWS V14.00,2013-01-17 02:25:00,
2013-01-17 04:28:00,46.2,40.4,29.69,North,0,0.0,0.0,80,0.00,,,0.00,VWS V14.00,2013-01-17 02:28:00,
2013-01-17 04:29:00,46.2,40.4,29.69,NE,45,0.0,0.0,80,0.00,,,0.00,VWS V14.00,2013-01-17 02:29:00,
2013-01-17 04:30:00,46.2,40.4,29.69,NE,45,0.0,0.0,80,0.00,,,0.00,VWS V14.00,2013-01-17 02:30:00,
2013-01-17 04:33:00,46.2,40.4,29.69,NE,45,0.0,0.0,80,0.00,,,0.00,VWS V14.00,2013-01-17 02:33:00,
2013-01-17 04:34:00,46.2,40.4,29.68,NE,45,0.0,0.0,80,0.00,,,0.00,VWS V14.00,2013-01-17 02:34:00,
2013-01-17 04:35:00,46.2,40.4,29.68,NE,45,0.0,0.0,80,0.00,,,0.00,VWS V14.00,2013-01-17 02:35:00,
2013-01-17 04:38:00,46.2,40.4,29.69,NNE,22,0.0,0.0,80,0.00,,,0.00,VWS V14.00,2013-01-17 02:38:00,
2013-01-17 04:39:00,46.2,40.4,29.69,NNE,22,0.0,0.0,80,0.00,,,0.00,VWS V14.00,2013-01-17 02:39:00,
2013-01-17 04:40:00,46.2,40.4,29.69,NNE,22,0.0,0.0,80,0.00,,,0.00,VWS V14.00,2013-01-17 02:40:00,
2013-01-17 04:41:00,46.2,40.4,29.69,NNE,22,0.0,0.0,80,0.00,,,0.00,VWS V14.00,2013-01-17 02:41:00,
2013-01-17 04:43:00,46.2,40.4,29.69,SW,225,0.0,0.0,80,0.00,,,0.00,VWS V14.00,2013-01-17 02:43:00,
2013-01-17 04:44:00,46.2,40.4,29.69,SW,225,0.0,0.0,80,0.00,,,0.00,VWS V14.00,2013-01-17 02:44:00,
2013-01-17 04:45:00,46.2,40.4,29.69,SW,225,0.0,0.0,80,0.00,,,0.00,VWS V14.00,2013-01-17 02:45:00,
2013-01-17 04:46:00,46.2,40.4,29.69,SW,225,0.0,0.0,80,0.00,,,0.00,VWS V14.00,2013-01-17 02:46:00,
2013-01-17 04:49:00,46.2,40.4,29.69,WSW,248,0.0,0.0,80,0.00,,,0.00,VWS V14.00,2013-01-17 02:49:00,
2013-01-17 04:50:00,46.2,40.4,29.69,WSW,248,0.0,0.0,80,0.00,,,0.00,VWS V14.00,2013-01-17 02:50:00,
2013-01-17 04:51:00,46.2,40.4,29.69,WSW,248,0.0,0.0,80,0.00,,,0.00,VWS V14.00,2013-01-17 02:51:00,
2013-01-17 04:53:00,46.2,40.4,29.69,West,270,0.0,0.0,80,0.00,,,0.00,VWS V14.00,2013-01-17 02:53:00,
2013-01-17 04:55:00,46.2,40.4,29.69,West,270,0.0,0.0,80,0.00,,,0.00,VWS V14.00,2013-01-17 02:55:00,
2013-01-17 04:56:00,46.2,40.4,29.69,West,270,0.0,0.0,80,0.00,,,0.00,VWS V14.00,2013-01-17 02:56:00,
2013-01-17 04:59:00,46.2,40.4,29.69,NW,315,0.0,0.0,80,0.00,,,0.00,VWS V14.00,2013-01-17 02:59:00,
2013-01-17 05:00:00,46.2,40.4,29.69,North,0,0.0,0.0,80,0.00,,,0.00,VWS V14.00,2013-01-17 03:00:00,
2013-01-17 05:01:00,46.2,40.4,29.69,North,0,0.0,0.0,80,0.00,,,0.00,VWS V14.00,2013-01-17 03:01:00,
2013-01-17 05:05:00,46.2,40.4,29.69,North,0,0.8,0.8,80,0.00,,,0.00,VWS V14.00,2013-01-17 03:05:00,
2013-01-17 05:06:00,46.2,40.4,29.69,North,0,0.8,0.8,80,0.00,,,0.00,VWS V14.00,2013-01-17 03:06:00,
2013-01-17 05:10:00,46.0,40.5,29.69,North,0,4.6,4.6,81,0.00,,,0.00,VWS V14.00,2013-01-17 03:10:00,
2013-01-17 05:11:00,46.0,40.5,29.69,NNW,338,1.3,1.3,81,0.00,,,0.00,VWS V14.00,2013-01-17 03:11:00,
2013-01-17 05:15:00,46.0,40.5,29.69,NNE,22,0.0,2.6,81,0.00,,,0.00,VWS V14.00,2013-01-17 03:15:00,
2013-01-17 05:16:00,46.0,40.5,29.69,NNE,22,0.0,0.0,81,0.00,,,0.00,VWS V14.00,2013-01-17 03:16:00,
2013-01-17 05:20:00,46.0,40.5,29.69,North,0,1.1,1.1,81,0.00,,,0.00,VWS V14.00,2013-01-17 03:20:00,
2013-01-17 05:21:00,46.0,40.5,29.69,North,0,1.1,1.1,81,0.00,,,0.00,VWS V14.00,2013-01-17 03:21:00,
2013-01-17 05:25:00,45.8,40.3,29.69,NE,45,3.3,3.3,81,0.00,,,0.00,VWS V14.00,2013-01-17 03:25:00,
2013-01-17 05:26:00,45.8,40.3,29.69,ENE,68,0.0,0.0,81,0.00,,,0.00,VWS V14.00,2013-01-17 03:26:00,
2013-01-17 05:30:00,45.8,40.3,29.70,East,90,0.0,0.0,81,0.00,,,0.00,VWS V14.00,2013-01-17 03:30:00,
2013-01-17 05:31:00,45.8,40.3,29.70,East,90,0.0,0.0,81,0.00,,,0.00,VWS V14.00,2013-01-17 03:31:00,
2013-01-17 05:35:00,45.6,40.1,29.70,ESE,112,0.0,1.1,81,0.00,,,0.00,VWS V14.00,2013-01-17 03:35:00,
2013-01-17 05:36:00,45.6,40.1,29.70,ESE,112,0.0,0.0,81,0.00,,,0.00,VWS V14.00,2013-01-17 03:36:00,
2013-01-17 05:40:00,45.6,40.1,29.70,SSE,158,0.0,1.3,81,0.00,,,0.00,VWS V14.00,2013-01-17 03:40:00,
2013-01-17 05:41:00,45.6,40.1,29.70,ESE,112,0.0,0.0,81,0.00,,,0.00,VWS V14.00,2013-01-17 03:41:00,
2013-01-17 05:45:00,46.0,40.5,29.71,NNW,338,0.0,0.0,81,0.00,,,0.00,VWS V14.00,2013-01-17 03:45:00,
2013-01-17 05:46:00,46.0,40.5,29.71,NNW,338,0.0,0.0,81,0.00,,,0.00,VWS V14.00,2013-01-17 03:46:00,
2013-01-17 05:50:00,46.0,40.5,29.71,North,0,0.0,0.0,81,0.00,,,0.00,VWS V14.00,2013-01-17 03:50:00,
2013-01-17 05:51:00,46.0,40.5,29.71,North,0,0.0,0.0,81,0.00,,,0.00,VWS V14.00,2013-01-17 03:51:00,
2013-01-17 05:52:00,46.0,40.5,29.71,North,0,0.0,0.0,81,0.00,,,0.00,VWS V14.00,2013-01-17 03:52:00,
2013-01-17 05:55:00,46.2,40.7,29.70,North,0,0.0,0.0,81,0.00,,,0.00,VWS V14.00,2013-01-17 03:55:00,
2013-01-17 05:56:00,46.2,40.7,29.70,North,0,0.0,0.0,81,0.00,,,0.00,VWS V14.00,2013-01-17 03:56:00,
2013-01-17 05:57:00,46.2,40.7,29.70,North,0,0.0,0.0,81,0.00,,,0.00,VWS V14.00,2013-01-17 03:57:00,
2013-01-17 06:00:00,46.2,40.7,29.70,NNW,338,0.0,0.0,81,0.00,,,0.00,VWS V14.00,2013-01-17 04:00:00,
2013-01-17 06:01:00,46.2,40.7,29.70,NNW,338,0.0,0.0,81,0.00,,,0.00,VWS V14.00,2013-01-17 04:01:00,
2013-01-17 06:02:00,46.2,40.7,29.70,NNE,22,1.3,1.3,81,0.00,,,0.00,VWS V14.00,2013-01-17 04:02:00,
2013-01-17 06:05:00,46.2,40.7,29.69,NNE,22,1.1,1.1,81,0.00,,,0.00,VWS V14.00,2013-01-17 04:05:00,
2013-01-17 06:06:00,46.2,40.7,29.69,NNE,22,1.1,1.1,81,0.00,,,0.00,VWS V14.00,2013-01-17 04:06:00,
2013-01-17 06:07:00,46.4,40.9,29.70,NNE,22,0.0,1.1,81,0.00,,,0.00,VWS V14.00,2013-01-17 04:07:00,
2013-01-17 06:11:00,46.5,41.0,29.70,NNW,338,2.2,2.2,81,0.00,,,0.00,VWS V14.00,2013-01-17 04:11:00,
2013-01-17 06:12:00,46.5,41.0,29.70,NNW,338,2.2,2.2,81,0.00,,,0.00,VWS V14.00,2013-01-17 04:12:00,
2013-01-17 06:16:00,46.5,41.3,29.69,North,0,4.4,4.4,82,0.00,,,0.00,VWS V14.00,2013-01-17 04:16:00,
2013-01-17 06:17:00,46.5,41.3,29.70,North,0,2.9,4.4,82,0.00,,,0.00,VWS V14.00,2013-01-17 04:17:00,
2013-01-17 06:21:00,46.5,41.3,29.69,NNW,338,4.0,4.0,82,0.00,,,0.00,VWS V14.00,2013-01-17 04:21:00,
2013-01-17 06:22:00,46.5,41.3,29.69,NNW,338,4.0,4.0,82,0.00,,,0.00,VWS V14.00,2013-01-17 04:22:00,
2013-01-17 06:26:00,46.5,41.0,29.69,NNE,22,0.0,0.0,81,0.00,,,0.00,VWS V14.00,2013-01-17 04:26:00,
2013-01-17 06:27:00,46.5,41.0,29.69,NNE,22,0.0,0.0,81,0.00,,,0.00,VWS V14.00,2013-01-17 04:27:00,
2013-01-17 06:31:00,46.5,41.0,29.69,NNE,22,2.2,2.2,81,0.00,,,0.00,VWS V14.00,2013-01-17 04:31:00,
2013-01-17 06:32:00,46.5,41.0,29.70,NNE,22,3.3,3.3,81,0.00,,,0.00,VWS V14.00,2013-01-17 04:32:00,
2013-01-17 06:36:00,46.5,41.0,29.70,NNE,22,4.6,4.6,81,0.00,,,0.00,VWS V14.00,2013-01-17 04:36:00,
2013-01-17 06:37:00,46.5,41.0,29.69,NNE,22,4.6,4.6,81,0.00,,,0.00,VWS V14.00,2013-01-17 04:37:00,
2013-01-17 06:41:00,46.5,41.0,29.69,ENE,68,0.6,0.6,81,0.00,,,0.00,VWS V14.00,2013-01-17 04:41:00,
2013-01-17 06:42:00,46.5,41.0,29.70,ENE,68,0.6,0.6,81,0.00,,,0.00,VWS V14.00,2013-01-17 04:42:00,
2013-01-17 06:46:00,46.5,41.0,29.70,NE,45,2.2,2.2,81,0.00,,,0.00,VWS V14.00,2013-01-17 04:46:00,
2013-01-17 06:47:00,46.5,41.0,29.69,North,0,1.3,2.2,81,0.00,,,0.00,VWS V14.00,2013-01-17 04:47:00,
2013-01-17 06:51:00,46.5,41.0,29.69,NE,45,1.3,1.3,81,0.00,,,0.00,VWS V14.00,2013-01-17 04:51:00,
2013-01-17 06:52:00,46.5,41.0,29.69,NE,45,1.3,1.3,81,0.00,,,0.00,VWS V14.00,2013-01-17 04:52:00,
2013-01-17 06:56:00,46.5,41.0,29.70,NNW,338,0.0,0.0,81,0.00,,,0.00,VWS V14.00,2013-01-17 04:56:00,
2013-01-17 06:57:00,46.5,41.0,29.70,NNW,338,0.0,0.0,81,0.00,,,0.00,VWS V14.00,2013-01-17 04:57:00,
2013-01-17 07:00:00,46.5,41.0,29.70,NW,315,1.1,1.1,81,0.00,,,0.00,VWS V14.00,2013-01-17 05:00:00,
2013-01-17 07:01:00,46.5,41.0,29.70,NW,315,1.1,1.1,81,0.00,,,0.00,VWS V14.00,2013-01-17 05:01:00,
2013-01-17 07:03:00,46.5,41.0,29.69,NNW,338,0.0,1.1,81,0.00,,,0.00,VWS V14.00,2013-01-17 05:03:00,
2013-01-17 07:05:00,46.5,41.0,29.70,NNW,338,0.0,1.1,81,0.00,,,0.00,VWS V14.00,2013-01-17 05:05:00,
2013-01-17 07:06:00,46.5,41.0,29.70,NW,315,1.7,1.7,81,0.00,,,0.00,VWS V14.00,2013-01-17 05:06:00,
2013-01-17 07:08:00,46.5,41.0,29.70,NNW,338,0.0,1.7,81,0.00,,,0.00,VWS V14.00,2013-01-17 05:08:00,
2013-01-17 07:10:00,46.5,41.0,29.69,NNW,338,0.0,0.0,81,0.00,,,0.00,VWS V14.00,2013-01-17 05:10:00,
2013-01-17 07:11:00,46.5,41.0,29.69,NNW,338,0.0,0.0,81,0.00,,,0.00,VWS V14.00,2013-01-17 05:11:00,
2013-01-17 07:13:00,46.7,41.2,29.70,NNW,338,0.0,0.0,81,0.00,,,0.00,VWS V14.00,2013-01-17 05:13:00,
2013-01-17 07:15:00,46.7,41.2,29.70,North,0,0.0,0.0,81,0.00,,,0.00,VWS V14.00,2013-01-17 05:15:00,
2013-01-17 07:16:00,46.7,41.2,29.70,North,0,0.0,0.0,81,0.00,,,0.00,VWS V14.00,2013-01-17 05:16:00,
2013-01-17 07:18:00,46.7,41.5,29.70,NNE,22,0.0,0.0,82,0.00,,,0.00,VWS V14.00,2013-01-17 05:18:00,
2013-01-17 07:20:00,46.7,41.5,29.70,North,0,0.0,0.0,82,0.00,,,0.00,VWS V14.00,2013-01-17 05:20:00,
2013-01-17 07:21:00,46.7,41.5,29.70,North,0,0.0,0.0,82,0.00,,,0.00,VWS V14.00,2013-01-17 05:21:00,
2013-01-17 07:23:00,46.7,41.5,29.70,NNW,338,0.0,0.0,82,0.00,,,0.00,VWS V14.00,2013-01-17 05:23:00,
2013-01-17 07:25:00,46.7,41.5,29.70,North,0,0.0,0.0,82,0.00,,,0.00,VWS V14.00,2013-01-17 05:25:00,
2013-01-17 07:26:00,46.7,41.5,29.70,North,0,0.0,0.0,82,0.00,,,0.00,VWS V14.00,2013-01-17 05:26:00,
2013-01-17 07:28:00,46.7,41.2,29.70,NE,45,0.0,0.0,81,0.00,,,0.00,VWS V14.00,2013-01-17 05:28:00,
2013-01-17 07:30:00,46.7,41.5,29.70,NE,45,0.0,0.0,82,0.00,,,0.00,VWS V14.00,2013-01-17 05:30:00,
2013-01-17 07:31:00,46.7,41.5,29.70,NE,45,0.0,0.0,82,0.00,,,0.00,VWS V14.00,2013-01-17 05:31:00,
2013-01-17 07:33:00,46.7,41.5,29.70,NE,45,0.0,0.0,82,0.00,,,0.00,VWS V14.00,2013-01-17 05:33:00,
2013-01-17 07:35:00,46.7,41.5,29.71,SW,225,0.0,0.0,82,0.00,,,0.00,VWS V14.00,2013-01-17 05:35:00,
2013-01-17 07:36:00,46.7,41.5,29.71,SW,225,0.0,0.0,82,0.00,,,0.00,VWS V14.00,2013-01-17 05:36:00,
2013-01-17 07:38:00,46.7,41.5,29.71,SW,225,0.0,0.0,82,0.00,,,0.00,VWS V14.00,2013-01-17 05:38:00,
2013-01-17 07:40:00,46.7,41.5,29.71,SW,225,0.0,0.0,82,0.00,,,0.00,VWS V14.00,2013-01-17 05:40:00,
2013-01-17 07:41:00,46.7,41.5,29.71,SW,225,0.0,0.0,82,0.00,,,0.00,VWS V14.00,2013-01-17 05:41:00,
2013-01-17 07:44:00,46.7,41.5,29.71,SW,225,0.0,0.0,82,0.00,,,0.00,VWS V14.00,2013-01-17 05:44:00,
2013-01-17 07:45:00,46.7,41.5,29.71,WNW,292,0.0,0.0,82,0.00,,,0.00,VWS V14.00,2013-01-17 05:45:00,
2013-01-17 07:46:00,46.7,41.5,29.71,WNW,292,0.0,0.0,82,0.00,,,0.00,VWS V14.00,2013-01-17 05:46:00,
2013-01-17 07:49:00,46.9,42.0,29.71,NNW,338,0.0,1.5,83,0.00,,,0.00,VWS V14.00,2013-01-17 05:49:00,
2013-01-17 07:50:00,46.9,42.0,29.71,NNW,338,0.0,0.0,83,0.00,,,0.00,VWS V14.00,2013-01-17 05:50:00,
2013-01-17 07:51:00,46.9,42.0,29.71,NNW,338,0.0,0.0,83,0.00,,,0.00,VWS V14.00,2013-01-17 05:51:00,
2013-01-17 07:54:00,46.9,42.0,29.71,NNW,338,1.3,1.3,83,0.00,,,0.00,VWS V14.00,2013-01-17 05:54:00,
2013-01-17 07:55:00,46.7,41.8,29.71,NNW,338,0.0,0.0,83,0.00,,,0.00,VWS V14.00,2013-01-17 05:55:00,
2013-01-17 07:56:00,46.7,41.8,29.71,NNW,338,0.0,0.0,83,0.00,,,0.00,VWS V14.00,2013-01-17 05:56:00,
2013-01-17 07:59:00,46.7,41.8,29.71,North,0,0.0,0.0,83,0.00,,,0.00,VWS V14.00,2013-01-17 05:59:00,
2013-01-17 08:00:00,46.7,41.8,29.71,North,0,0.0,0.0,83,0.00,,,0.00,VWS V14.00,2013-01-17 06:00:00,
2013-01-17 08:01:00,46.7,41.8,29.71,NW,315,0.8,0.8,83,0.00,,,0.00,VWS V14.00,2013-01-17 06:01:00,
2013-01-17 08:04:00,46.7,41.8,29.71,NNW,338,1.1,1.1,83,0.00,,,0.00,VWS V14.00,2013-01-17 06:04:00,
2013-01-17 08:05:00,46.7,41.8,29.71,NNW,338,1.1,1.1,83,0.00,,,0.00,VWS V14.00,2013-01-17 06:05:00,
2013-01-17 08:06:00,46.9,42.0,29.71,NNE,22,0.0,1.1,83,0.00,,,0.00,VWS V14.00,2013-01-17 06:06:00,
2013-01-17 08:09:00,46.9,42.0,29.72,East,90,0.0,1.1,83,0.00,,,0.00,VWS V14.00,2013-01-17 06:09:00,
2013-01-17 08:10:00,47.1,42.2,29.72,North,0,0.0,0.0,83,0.00,,,0.00,VWS V14.00,2013-01-17 06:10:00,
2013-01-17 08:11:00,47.1,42.2,29.72,North,0,0.0,0.0,83,0.00,,,0.00,VWS V14.00,2013-01-17 06:11:00,
2013-01-17 08:14:00,47.1,42.2,29.72,NNW,338,1.3,1.3,83,0.00,,,0.00,VWS V14.00,2013-01-17 06:14:00,
2013-01-17 08:15:00,47.1,42.2,29.71,NNW,338,1.3,1.3,83,0.00,,,0.00,VWS V14.00,2013-01-17 06:15:00,
2013-01-17 08:16:00,47.1,42.2,29.72,SSW,202,1.5,1.5,83,0.00,,,0.00,VWS V14.00,2013-01-17 06:16:00,
2013-01-17 08:17:00,47.1,42.2,29.72,SSW,202,1.5,1.5,83,0.00,,,0.00,VWS V14.00,2013-01-17 06:17:00,
2013-01-17 08:19:00,47.4,42.8,29.72,SSW,202,0.0,1.5,84,0.00,,,0.00,VWS V14.00,2013-01-17 06:19:00,
2013-01-17 08:20:00,47.4,42.8,29.72,SSW,202,0.0,0.0,84,0.00,,,0.00,VWS V14.00,2013-01-17 06:20:00,
2013-01-17 08:21:00,47.6,43.0,29.72,NW,315,0.0,0.0,84,0.00,,,0.00,VWS V14.00,2013-01-17 06:21:00,
2013-01-17 08:22:00,47.6,43.0,29.72,NW,315,0.0,0.0,84,0.00,,,0.00,VWS V14.00,2013-01-17 06:22:00,
2013-01-17 08:24:00,47.8,43.2,29.71,WNW,292,0.0,0.0,84,0.00,,,0.00,VWS V14.00,2013-01-17 06:24:00,
2013-01-17 08:25:00,47.8,42.9,29.72,WNW,292,0.0,0.0,83,0.00,,,0.00,VWS V14.00,2013-01-17 06:25:00,
2013-01-17 08:26:00,47.8,42.9,29.72,WNW,292,0.0,0.0,83,0.00,,,0.00,VWS V14.00,2013-01-17 06:26:00,
2013-01-17 08:27:00,47.8,42.9,29.72,WNW,292,0.0,0.0,83,0.00,,,0.00,VWS V14.00,2013-01-17 06:27:00,
2013-01-17 08:29:00,48.0,43.1,29.73,East,90,0.0,0.0,83,0.00,,,0.00,VWS V14.00,2013-01-17 06:29:00,
2013-01-17 08:30:00,48.0,43.1,29.73,East,90,0.0,0.0,83,0.00,,,0.00,VWS V14.00,2013-01-17 06:30:00,
2013-01-17 08:31:00,48.0,43.1,29.73,East,90,0.0,0.0,83,0.00,,,0.00,VWS V14.00,2013-01-17 06:31:00,
2013-01-17 08:32:00,48.0,43.1,29.73,East,90,0.0,0.0,83,0.00,,,0.00,VWS V14.00,2013-01-17 06:32:00,
2013-01-17 08:34:00,48.0,43.1,29.73,East,90,0.0,0.0,83,0.00,,,0.00,VWS V14.00,2013-01-17 06:34:00,
2013-01-17 08:35:00,48.0,43.1,29.73,East,90,0.0,0.0,83,0.00,,,0.00,VWS V14.00,2013-01-17 06:35:00,
2013-01-17 08:36:00,48.2,43.3,29.73,East,90,0.0,0.0,83,0.00,,,0.00,VWS V14.00,2013-01-17 06:36:00,
2013-01-17 08:37:00,48.2,43.3,29.73,East,90,0.0,0.0,83,0.00,,,0.00,VWS V14.00,2013-01-17 06:37:00,
2013-01-17 08:40:00,48.2,43.3,29.73,ENE,68,0.0,0.0,83,0.00,,,0.00,VWS V14.00,2013-01-17 06:40:00,
2013-01-17 08:41:00,48.2,43.3,29.73,North,0,0.0,0.0,83,0.00,,,0.00,VWS V14.00,2013-01-17 06:41:00,
2013-01-17 08:42:00,48.2,43.3,29.73,North,0,0.0,0.0,83,0.00,,,0.00,VWS V14.00,2013-01-17 06:42:00,
2013-01-17 08:45:00,48.3,43.4,29.73,North,0,0.0,0.0,83,0.00,,,0.00,VWS V14.00,2013-01-17 06:45:00,
2013-01-17 08:46:00,48.5,43.6,29.73,North,0,0.0,0.0,83,0.00,,,0.00,VWS V14.00,2013-01-17 06:46:00,
2013-01-17 08:47:00,48.5,43.6,29.73,North,0,0.0,0.0,83,0.00,,,0.00,VWS V14.00,2013-01-17 06:47:00,
2013-01-17 08:50:00,48.5,43.6,29.73,NW,315,0.0,0.0,83,0.00,,,0.00,VWS V14.00,2013-01-17 06:50:00,
2013-01-17 08:51:00,48.5,43.6,29.73,NW,315,0.0,0.0,83,0.00,,,0.00,VWS V14.00,2013-01-17 06:51:00,
2013-01-17 08:52:00,48.5,43.6,29.73,NW,315,0.0,0.0,83,0.00,,,0.00,VWS V14.00,2013-01-17 06:52:00,
2013-01-17 08:55:00,48.7,43.8,29.73,NW,315,0.0,0.0,83,0.00,,,0.00,VWS V14.00,2013-01-17 06:55:00,
2013-01-17 08:56:00,48.7,43.8,29.73,North,0,0.0,0.0,83,0.00,,,0.00,VWS V14.00,2013-01-17 06:56:00,
2013-01-17 08:57:00,48.7,43.8,29.73,North,0,0.0,0.0,83,0.00,,,0.00,VWS V14.00,2013-01-17 06:57:00,
2013-01-17 09:00:00,49.2,44.3,29.73,East,90,1.5,1.5,83,0.00,,,0.00,VWS V14.00,2013-01-17 07:00:00,
2013-01-17 09:01:00,49.2,44.3,29.73,East,90,1.5,1.5,83,0.00,,,0.00,VWS V14.00,2013-01-17 07:01:00,
2013-01-17 09:02:00,49.6,44.7,29.74,ESE,112,2.0,2.0,83,0.00,,,0.00,VWS V14.00,2013-01-17 07:02:00,
2013-01-17 09:05:00,49.8,44.5,29.74,ENE,68,0.0,2.0,82,0.00,,,0.00,VWS V14.00,2013-01-17 07:05:00,
2013-01-17 09:06:00,49.8,44.5,29.74,ENE,68,0.0,0.0,82,0.00,,,0.00,VWS V14.00,2013-01-17 07:06:00,
2013-01-17 09:07:00,50.1,44.8,29.74,East,90,0.0,0.0,82,0.00,,,0.00,VWS V14.00,2013-01-17 07:07:00,
2013-01-17 09:10:00,50.5,44.9,29.74,East,90,0.0,0.0,81,0.00,,,0.00,VWS V14.00,2013-01-17 07:10:00,
2013-01-17 09:11:00,50.5,44.9,29.74,East,90,0.0,0.0,81,0.00,,,0.00,VWS V14.00,2013-01-17 07:11:00,
2013-01-17 09:12:00,50.7,45.1,29.74,East,90,0.0,0.0,81,0.00,,,0.00,VWS V14.00,2013-01-17 07:12:00,
2013-01-17 09:15:00,50.9,45.3,29.75,East,90,0.6,0.6,81,0.00,,,0.00,VWS V14.00,2013-01-17 07:15:00,
2013-01-17 09:16:00,50.9,45.3,29.75,East,90,0.6,0.6,81,0.00,,,0.00,VWS V14.00,2013-01-17 07:16:00,
2013-01-17 09:17:00,50.9,45.0,29.74,East,90,0.0,0.6,80,0.00,,,0.00,VWS V14.00,2013-01-17 07:17:00,
2013-01-17 09:20:00,51.2,45.2,29.75,ESE,112,2.0,2.0,80,0.00,,,0.00,VWS V14.00,2013-01-17 07:20:00,
2013-01-17 09:21:00,51.2,45.2,29.75,ESE,112,2.0,2.0,80,0.00,,,0.00,VWS V14.00,2013-01-17 07:21:00,
2013-01-17 09:22:00,51.6,45.3,29.75,ESE,112,0.0,2.0,79,0.00,,,0.00,VWS V14.00,2013-01-17 07:22:00,
2013-01-17 09:25:00,51.8,45.2,29.74,East,90,1.1,1.1,78,0.00,,,0.00,VWS V14.00,2013-01-17 07:25:00,
2013-01-17 09:26:00,51.8,45.2,29.75,East,90,1.1,1.1,78,0.00,,,0.00,VWS V14.00,2013-01-17 07:26:00,
2013-01-17 09:27:00,51.8,45.2,29.75,East,90,1.1,1.1,78,0.00,,,0.00,VWS V14.00,2013-01-17 07:27:00,
2013-01-17 09:30:00,52.1,45.1,29.74,East,90,0.8,0.8,77,0.00,,,0.00,VWS V14.00,2013-01-17 07:30:00,
2013-01-17 09:31:00,52.3,45.7,29.74,East,90,0.0,0.8,78,0.00,,,0.00,VWS V14.00,2013-01-17 07:31:00,
2013-01-17 09:32:00,52.3,45.7,29.74,East,90,0.0,0.8,78,0.00,,,0.00,VWS V14.00,2013-01-17 07:32:00,
2013-01-17 09:35:00,52.5,45.5,29.75,SE,135,2.4,2.4,77,0.00,,,0.00,VWS V14.00,2013-01-17 07:35:00,
2013-01-17 09:36:00,52.8,45.8,29.75,SE,135,0.8,2.4,77,0.00,,,0.00,VWS V14.00,2013-01-17 07:36:00,
2013-01-17 09:37:00,52.8,45.8,29.75,SE,135,0.8,2.4,77,0.00,,,0.00,VWS V14.00,2013-01-17 07:37:00,
2013-01-17 09:38:00,52.8,45.8,29.75,SE,135,0.8,2.4,77,0.00,,,0.00,VWS V14.00,2013-01-17 07:38:00,
2013-01-17 09:40:00,52.8,45.5,29.75,East,90,1.1,1.1,76,0.00,,,0.00,VWS V14.00,2013-01-17 07:40:00,
2013-01-17 09:41:00,52.8,45.5,29.75,East,90,1.1,1.1,76,0.00,,,0.00,VWS V14.00,2013-01-17 07:41:00,
2013-01-17 09:42:00,52.8,45.5,29.75,East,90,1.1,1.1,76,0.00,,,0.00,VWS V14.00,2013-01-17 07:42:00,
2013-01-17 09:43:00,52.8,45.5,29.75,East,90,0.0,1.1,76,0.00,,,0.00,VWS V14.00,2013-01-17 07:43:00,
2013-01-17 09:46:00,53.0,45.3,29.75,ESE,112,1.1,1.1,75,0.00,,,0.00,VWS V14.00,2013-01-17 07:46:00,
2013-01-17 09:47:00,53.2,45.5,29.75,ESE,112,0.0,1.1,75,0.00,,,0.00,VWS V14.00,2013-01-17 07:47:00,
2013-01-17 09:48:00,53.2,45.5,29.75,ESE,112,0.0,1.1,75,0.00,,,0.00,VWS V14.00,2013-01-17 07:48:00,
2013-01-17 09:51:00,53.2,45.5,29.75,ESE,112,0.0,0.0,75,0.00,,,0.00,VWS V14.00,2013-01-17 07:51:00,
2013-01-17 09:52:00,53.2,45.5,29.75,SE,135,3.1,3.1,75,0.00,,,0.00,VWS V14.00,2013-01-17 07:52:00,
2013-01-17 09:53:00,53.2,45.5,29.75,SE,135,1.3,3.1,75,0.00,,,0.00,VWS V14.00,2013-01-17 07:53:00,
2013-01-17 09:56:00,53.2,45.5,29.75,East,90,0.8,0.8,75,0.00,,,0.00,VWS V14.00,2013-01-17 07:56:00,
2013-01-17 09:57:00,53.2,45.1,29.75,SE,135,2.9,2.9,74,0.00,,,0.00,VWS V14.00,2013-01-17 07:57:00,
2013-01-17 09:58:00,53.2,45.1,29.75,SE,135,2.9,2.9,74,0.00,,,0.00,VWS V14.00,2013-01-17 07:58:00,
2013-01-17 10:01:00,53.2,45.1,29.76,ESE,112,0.6,0.6,74,0.00,,,0.00,VWS V14.00,2013-01-17 08:01:00,
2013-01-17 10:02:00,53.2,45.1,29.75,ESE,112,0.0,0.6,74,0.00,,,0.00,VWS V14.00,2013-01-17 08:02:00,
2013-01-17 10:03:00,53.2,45.1,29.75,ESE,112,1.5,1.5,74,0.00,,,0.00,VWS V14.00,2013-01-17 08:03:00,
2013-01-17 10:06:00,53.2,45.1,29.75,ESE,112,0.8,1.5,74,0.00,,,0.00,VWS V14.00,2013-01-17 08:06:00,
2013-01-17 10:07:00,53.2,45.1,29.75,ESE,112,0.8,1.5,74,0.00,,,0.00,VWS V14.00,2013-01-17 08:07:00,
2013-01-17 10:08:00,53.4,45.3,29.75,SE,135,0.0,1.5,74,0.00,,,0.00,VWS V14.00,2013-01-17 08:08:00,
2013-01-17 10:11:00,53.4,45.7,29.75,South,180,0.8,0.8,75,0.00,,,0.00,VWS V14.00,2013-01-17 08:11:00,
2013-01-17 10:12:00,53.4,45.7,29.75,South,180,0.8,0.8,75,0.00,,,0.00,VWS V14.00,2013-01-17 08:12:00,
2013-01-17 10:13:00,53.7,45.6,29.75,SE,135,1.1,1.1,74,0.00,,,0.00,VWS V14.00,2013-01-17 08:13:00,
2013-01-17 10:16:00,53.7,45.6,29.75,SW,225,2.0,2.0,74,0.00,,,0.00,VWS V14.00,2013-01-17 08:16:00,
2013-01-17 10:17:00,53.7,45.6,29.75,SW,225,2.0,2.0,74,0.00,,,0.00,VWS V14.00,2013-01-17 08:17:00,
2013-01-17 10:18:00,53.9,45.8,29.75,SW,225,2.0,2.0,74,0.00,,,0.00,VWS V14.00,2013-01-17 08:18:00,
2013-01-17 10:21:00,54.1,46.0,29.75,SE,135,0.0,6.7,74,0.00,,,0.00,VWS V14.00,2013-01-17 08:21:00,
2013-01-17 10:22:00,54.1,46.0,29.75,SE,135,0.0,6.7,74,0.00,,,0.00,VWS V14.00,2013-01-17 08:22:00,
2013-01-17 10:23:00,54.3,45.8,29.74,SSE,158,1.5,6.7,73,0.00,,,0.00,VWS V14.00,2013-01-17 08:23:00,
2013-01-17 10:26:00,54.6,45.8,29.75,SSW,202,0.8,0.8,72,0.00,,,0.00,VWS V14.00,2013-01-17 08:26:00,
2013-01-17 10:27:00,54.6,45.8,29.75,SSW,202,0.8,0.8,72,0.00,,,0.00,VWS V14.00,2013-01-17 08:27:00,
2013-01-17 10:28:00,55.0,46.2,29.75,SSW,202,5.3,5.3,72,0.00,,,0.00,VWS V14.00,2013-01-17 08:28:00,
2013-01-17 10:29:00,55.0,46.2,29.74,SSW,202,5.3,5.3,72,0.00,,,0.00,VWS V14.00,2013-01-17 08:29:00,
2013-01-17 10:32:00,55.5,45.9,29.75,SW,225,4.2,4.2,70,0.00,,,0.00,VWS V14.00,2013-01-17 08:32:00,
2013-01-17 10:33:00,55.5,45.9,29.75,SW,225,4.2,4.2,70,0.00,,,0.00,VWS V14.00,2013-01-17 08:33:00,
2013-01-17 10:34:00,55.5,45.9,29.75,ESE,112,6.9,6.9,70,0.00,,,0.00,VWS V14.00,2013-01-17 08:34:00,
2013-01-17 10:36:00,55.9,45.9,29.75,WSW,248,7.3,7.3,69,0.00,,,0.00,VWS V14.00,2013-01-17 08:36:00,
2013-01-17 10:37:00,55.9,45.9,29.75,WSW,248,7.3,7.3,69,0.00,,,0.00,VWS V14.00,2013-01-17 08:37:00,
2013-01-17 10:38:00,55.9,45.9,29.75,WSW,248,7.3,7.3,69,0.00,,,0.00,VWS V14.00,2013-01-17 08:38:00,
2013-01-17 10:39:00,55.9,45.9,29.75,WSW,248,0.0,7.3,69,0.00,,,0.00,VWS V14.00,2013-01-17 08:39:00,
2013-01-17 10:42:00,55.9,45.9,29.75,West,270,5.8,5.8,69,0.00,,,0.00,VWS V14.00,2013-01-17 08:42:00,
2013-01-17 10:43:00,55.9,45.9,29.75,SE,135,4.2,5.8,69,0.00,,,0.00,VWS V14.00,2013-01-17 08:43:00,
2013-01-17 10:44:00,55.9,45.9,29.75,WSW,248,5.1,5.8,69,0.00,,,0.00,VWS V14.00,2013-01-17 08:44:00,
2013-01-17 10:47:00,56.1,45.7,29.75,South,180,5.3,5.3,68,0.00,,,0.00,VWS V14.00,2013-01-17 08:47:00,
2013-01-17 10:48:00,56.1,45.7,29.74,South,180,5.3,5.3,68,0.00,,,0.00,VWS V14.00,2013-01-17 08:48:00,
2013-01-17 10:49:00,56.1,45.7,29.74,SSW,202,5.5,5.5,68,0.00,,,0.00,VWS V14.00,2013-01-17 08:49:00,
2013-01-17 10:52:00,56.3,46.3,29.74,SW,225,10.5,10.5,69,0.00,,,0.00,VWS V14.00,2013-01-17 08:52:00,
2013-01-17 10:53:00,56.3,46.3,29.74,SW,225,10.5,10.5,69,0.00,,,0.00,VWS V14.00,2013-01-17 08:53:00,
2013-01-17 10:54:00,56.3,45.9,29.74,SSW,202,10.0,10.5,68,0.00,,,0.00,VWS V14.00,2013-01-17 08:54:00,
2013-01-17 10:57:00,56.4,46.0,29.74,SW,225,8.0,8.0,68,0.00,,,0.00,VWS V14.00,2013-01-17 08:57:00,
2013-01-17 10:58:00,56.3,45.9,29.74,SSW,202,2.0,8.0,68,0.00,,,0.00,VWS V14.00,2013-01-17 08:58:00,
2013-01-17 10:59:00,56.1,45.7,29.74,SSE,158,2.6,8.0,68,0.00,,,0.00,VWS V14.00,2013-01-17 08:59:00,
2013-01-17 11:02:00,56.1,46.1,29.74,ENE,68,2.9,2.9,69,0.00,,,0.00,VWS V14.00,2013-01-17 09:02:00,
2013-01-17 11:03:00,55.9,45.9,29.74,ENE,68,2.9,2.9,69,0.00,,,0.00,VWS V14.00,2013-01-17 09:03:00,
2013-01-17 11:05:00,55.9,45.9,29.74,WSW,248,11.8,11.8,69,0.00,,,0.00,VWS V14.00,2013-01-17 09:05:00,
2013-01-17 11:07:00,55.7,45.7,29.74,SSE,158,2.0,11.8,69,0.00,,,0.00,VWS V14.00,2013-01-17 09:07:00,
2013-01-17 11:08:00,55.7,45.7,29.74,SSE,158,2.0,11.8,69,0.00,,,0.00,VWS V14.00,2013-01-17 09:08:00,
2013-01-17 11:10:00,55.7,46.1,29.74,WSW,248,0.0,11.8,70,0.00,,,0.00,VWS V14.00,2013-01-17 09:10:00,
2013-01-17 11:12:00,55.5,45.9,29.74,WSW,248,7.1,7.1,70,0.00,,,0.00,VWS V14.00,2013-01-17 09:12:00,
2013-01-17 11:13:00,55.5,45.9,29.74,SW,225,4.9,7.1,70,0.00,,,0.00,VWS V14.00,2013-01-17 09:13:00,
2013-01-17 11:15:00,55.4,45.8,29.74,South,180,4.2,7.1,70,0.00,,,0.00,VWS V14.00,2013-01-17 09:15:00,
2013-01-17 11:17:00,55.4,45.8,29.74,SW,225,4.6,4.6,70,0.00,,,0.00,VWS V14.00,2013-01-17 09:17:00,
2013-01-17 11:18:00,55.4,45.8,29.74,SW,225,4.6,4.6,70,0.00,,,0.00,VWS V14.00,2013-01-17 09:18:00,
2013-01-17 11:20:00,55.5,45.9,29.74,South,180,6.7,6.7,70,0.00,,,0.00,VWS V14.00,2013-01-17 09:20:00,
2013-01-17 11:22:00,55.5,45.9,29.74,WSW,248,3.3,6.7,70,0.00,,,0.00,VWS V14.00,2013-01-17 09:22:00,
2013-01-17 11:23:00,55.5,45.9,29.73,WSW,248,3.3,6.7,70,0.00,,,0.00,VWS V14.00,2013-01-17 09:23:00,
2013-01-17 11:25:00,55.5,45.9,29.73,SSW,202,3.8,3.8,70,0.00,,,0.00,VWS V14.00,2013-01-17 09:25:00,
2013-01-17 11:27:00,55.5,45.9,29.73,SSW,202,3.8,3.8,70,0.00,,,0.00,VWS V14.00,2013-01-17 09:27:00,
2013-01-17 11:28:00,55.5,45.5,29.73,SW,225,2.2,3.8,69,0.00,,,0.00,VWS V14.00,2013-01-17 09:28:00,
2013-01-17 11:30:00,55.7,46.1,29.73,WSW,248,3.8,3.8,70,0.00,,,0.00,VWS V14.00,2013-01-17 09:30:00,
2013-01-17 11:32:00,55.9,45.9,29.73,WSW,248,15.8,15.8,69,0.00,,,0.00,VWS V14.00,2013-01-17 09:32:00,
2013-01-17 11:33:00,55.9,45.9,29.73,WSW,248,15.8,15.8,69,0.00,,,0.00,VWS V14.00,2013-01-17 09:33:00,
2013-01-17 11:35:00,55.9,45.9,29.73,SW,225,9.1,9.1,69,0.00,,,0.00,VWS V14.00,2013-01-17 09:35:00,
2013-01-17 11:37:00,55.9,45.5,29.73,SSW,202,6.4,9.1,68,0.00,,,0.00,VWS V14.00,2013-01-17 09:37:00,
2013-01-17 11:38:00,55.9,45.5,29.73,SSW,202,6.4,9.1,68,0.00,,,0.00,VWS V14.00,2013-01-17 09:38:00,
2013-01-17 11:40:00,56.1,45.7,29.73,SW,225,4.6,4.6,68,0.00,,,0.00,VWS V14.00,2013-01-17 09:40:00,
2013-01-17 11:42:00,56.1,45.3,29.73,South,180,2.6,4.6,67,0.00,,,0.00,VWS V14.00,2013-01-17 09:42:00,
2013-01-17 11:43:00,56.1,45.3,29.73,South,180,2.6,4.6,67,0.00,,,0.00,VWS V14.00,2013-01-17 09:43:00,
2013-01-17 11:45:00,56.3,45.5,29.73,South,180,9.6,9.6,67,0.00,,,0.00,VWS V14.00,2013-01-17 09:45:00,
2013-01-17 11:47:00,56.3,45.5,29.73,SSW,202,2.6,9.6,67,0.00,,,0.00,VWS V14.00,2013-01-17 09:47:00,
2013-01-17 11:48:00,56.3,45.5,29.73,WSW,248,3.1,9.6,67,0.00,,,0.00,VWS V14.00,2013-01-17 09:48:00,
2013-01-17 11:50:00,56.3,45.5,29.72,WSW,248,3.1,3.1,67,0.00,,,0.00,VWS V14.00,2013-01-17 09:50:00,
2013-01-17 11:52:00,56.3,45.5,29.73,SSW,202,9.8,9.8,67,0.00,,,0.00,VWS V14.00,2013-01-17 09:52:00,
2013-01-17 11:53:00,56.3,45.5,29.72,SW,225,4.6,9.8,67,0.00,,,0.00,VWS V14.00,2013-01-17 09:53:00,
2013-01-17 11:55:00,56.1,45.3,29.72,SSW,202,0.0,0.0,67,0.00,,,0.00,VWS V14.00,2013-01-17 09:55:00,
2013-01-17 11:57:00,56.1,45.3,29.72,SSW,202,8.5,8.5,67,0.00,,,0.00,VWS V14.00,2013-01-17 09:57:00,
2013-01-17 11:58:00,56.1,45.3,29.72,SSW,202,8.5,8.5,67,0.00,,,0.00,VWS V14.00,2013-01-17 09:58:00,
2013-01-17 12:01:00,56.1,45.3,29.72,SW,225,9.3,9.3,67,0.00,,,0.00,VWS V14.00,2013-01-17 10:01:00,
2013-01-17 12:02:00,56.1,45.7,29.72,SW,225,7.8,9.3,68,0.00,,,0.00,VWS V14.00,2013-01-17 10:02:00,
2013-01-17 12:03:00,56.3,45.9,29.72,SW,225,7.8,9.3,68,0.00,,,0.00,VWS V14.00,2013-01-17 10:03:00,
2013-01-17 12:06:00,56.3,45.9,29.72,SSW,202,4.9,4.9,68,0.00,,,0.00,VWS V14.00,2013-01-17 10:06:00,
2013-01-17 12:08:00,56.1,45.3,29.72,South,180,8.5,8.5,67,0.00,,,0.00,VWS V14.00,2013-01-17 10:08:00,
2013-01-17 12:09:00,56.3,45.5,29.72,SW,225,2.2,8.5,67,0.00,,,0.00,VWS V14.00,2013-01-17 10:09:00,
2013-01-17 12:11:00,56.1,45.3,29.72,SW,225,4.4,4.4,67,0.00,,,0.00,VWS V14.00,2013-01-17 10:11:00,
2013-01-17 12:13:00,56.3,45.5,29.71,South,180,4.2,4.4,67,0.00,,,0.00,VWS V14.00,2013-01-17 10:13:00,
2013-01-17 12:14:00,56.3,45.5,29.71,South,180,4.2,4.4,67,0.00,,,0.00,VWS V14.00,2013-01-17 10:14:00,
2013-01-17 12:16:00,56.4,45.6,29.71,WSW,248,2.9,9.1,67,0.00,,,0.00,VWS V14.00,2013-01-17 10:16:00,
2013-01-17 12:18:00,56.4,45.6,29.71,WSW,248,2.9,9.1,67,0.00,,,0.00,VWS V14.00,2013-01-17 10:18:00,
2013-01-17 12:19:00,56.4,45.2,29.71,SW,225,7.1,9.1,66,0.00,,,0.00,VWS V14.00,2013-01-17 10:19:00,
2013-01-17 12:21:00,56.4,45.2,29.71,West,270,10.2,10.2,66,0.00,,,0.00,VWS V14.00,2013-01-17 10:21:00,
2013-01-17 12:23:00,56.4,45.2,29.72,West,270,10.2,10.2,66,0.00,,,0.00,VWS V14.00,2013-01-17 10:23:00,
2013-01-17 12:24:00,56.4,45.2,29.71,WSW,248,0.8,10.2,66,0.00,,,0.00,VWS V14.00,2013-01-17 10:24:00,
2013-01-17 12:26:00,56.4,45.6,29.71,SW,225,9.6,9.6,67,0.00,,,0.00,VWS V14.00,2013-01-17 10:26:00,
2013-01-17 12:28:00,56.4,45.6,29.71,South,180,3.1,9.6,67,0.00,,,0.00,VWS V14.00,2013-01-17 10:28:00,
2013-01-17 12:29:00,56.3,45.1,29.71,SSW,202,6.2,9.6,66,0.00,,,0.00,VWS V14.00,2013-01-17 10:29:00,
2013-01-17 12:31:00,56.4,45.6,29.71,SW,225,2.9,6.2,67,0.00,,,0.00,VWS V14.00,2013-01-17 10:31:00,
2013-01-17 12:33:00,56.4,45.6,29.72,SW,225,2.9,6.2,67,0.00,,,0.00,VWS V14.00,2013-01-17 10:33:00,
2013-01-17 12:34:00,56.4,45.6,29.72,SW,225,12.0,12.0,67,0.00,,,0.00,VWS V14.00,2013-01-17 10:34:00,
2013-01-17 12:36:00,56.3,45.5,29.71,WSW,248,3.1,12.0,67,0.00,,,0.00,VWS V14.00,2013-01-17 10:36:00,
2013-01-17 12:38:00,56.3,45.5,29.71,WSW,248,3.1,12.0,67,0.00,,,0.00,VWS V14.00,2013-01-17 10:38:00,
2013-01-17 12:39:00,56.3,45.5,29.71,WSW,248,3.8,12.0,67,0.00,,,0.00,VWS V14.00,2013-01-17 10:39:00,
2013-01-17 12:42:00,56.4,45.6,29.71,WSW,248,5.5,5.5,67,0.00,,,0.00,VWS V14.00,2013-01-17 10:42:00,
2013-01-17 12:43:00,56.4,45.6,29.71,SW,225,5.3,5.5,67,0.00,,,0.00,VWS V14.00,2013-01-17 10:43:00,
2013-01-17 12:44:00,56.4,45.6,29.71,SW,225,7.6,7.6,67,0.00,,,0.00,VWS V14.00,2013-01-17 10:44:00,
2013-01-17 12:47:00,56.4,45.6,29.71,ESE,112,3.8,7.6,67,0.00,,,0.00,VWS V14.00,2013-01-17 10:47:00,
2013-01-17 12:48:00,56.6,45.8,29.71,ESE,112,3.8,7.6,67,0.00,,,0.00,VWS V14.00,2013-01-17 10:48:00,
2013-01-17 12:50:00,56.6,45.8,29.71,WSW,248,8.2,8.2,67,0.00,,,0.00,VWS V14.00,2013-01-17 10:50:00,
2013-01-17 12:52:00,56.8,46.0,29.71,WSW,248,2.4,8.2,67,0.00,,,0.00,VWS V14.00,2013-01-17 10:52:00,
2013-01-17 12:53:00,56.8,46.0,29.71,WSW,248,2.4,8.2,67,0.00,,,0.00,VWS V14.00,2013-01-17 10:53:00,
2013-01-17 12:55:00,56.8,46.0,29.71,SSE,158,4.6,8.2,67,0.00,,,0.00,VWS V14.00,2013-01-17 10:55:00,
2013-01-17 12:57:00,56.8,46.0,29.71,SW,225,6.0,6.0,67,0.00,,,0.00,VWS V14.00,2013-01-17 10:57:00,
2013-01-17 12:58:00,56.8,46.0,29.71,SSW,202,3.3,6.0,67,0.00,,,0.00,VWS V14.00,2013-01-17 10:58:00,
2013-01-17 12:59:00,56.8,46.0,29.71,SSW,202,3.3,6.0,67,0.00,,,0.00,VWS V14.00,2013-01-17 10:59:00,
2013-01-17 13:00:00,56.8,45.6,29.71,South,180,2.2,6.0,66,0.00,,,0.00,VWS V14.00,2013-01-17 11:00:00,
2013-01-17 13:02:00,57.0,45.8,29.71,SW,225,4.6,4.6,66,0.00,,,0.00,VWS V14.00,2013-01-17 11:02:00,
2013-01-17 13:03:00,57.0,46.2,29.71,SW,225,4.6,4.6,67,0.00,,,0.00,VWS V14.00,2013-01-17 11:03:00,
2013-01-17 13:04:00,57.0,46.2,29.71,SW,225,4.6,4.6,67,0.00,,,0.00,VWS V14.00,2013-01-17 11:04:00,
2013-01-17 13:05:00,57.0,46.2,29.71,SSW,202,7.6,7.6,67,0.00,,,0.00,VWS V14.00,2013-01-17 11:05:00,
2013-01-17 13:07:00,57.2,46.0,29.71,SW,225,10.2,10.2,66,0.00,,,0.00,VWS V14.00,2013-01-17 11:07:00,
2013-01-17 13:08:00,57.3,46.0,29.71,SW,225,11.8,11.8,66,0.00,,,0.00,VWS V14.00,2013-01-17 11:08:00,
2013-01-17 13:09:00,57.3,46.0,29.71,SW,225,11.8,11.8,66,0.00,,,0.00,VWS V14.00,2013-01-17 11:09:00,
2013-01-17 13:10:00,57.3,46.0,29.71,SW,225,11.8,11.8,66,0.00,,,0.00,VWS V14.00,2013-01-17 11:10:00,
2013-01-17 13:12:00,57.3,45.2,29.70,South,180,4.2,4.2,64,0.00,,,0.00,VWS V14.00,2013-01-17 11:12:00,
2013-01-17 13:13:00,57.3,45.2,29.71,South,180,4.2,4.2,64,0.00,,,0.00,VWS V14.00,2013-01-17 11:13:00,
2013-01-17 13:14:00,57.3,45.2,29.71,South,180,4.2,4.2,64,0.00,,,0.00,VWS V14.00,2013-01-17 11:14:00,
2013-01-17 13:15:00,57.3,45.7,29.70,South,180,3.8,3.8,65,0.00,,,0.00,VWS V14.00,2013-01-17 11:15:00,
2013-01-17 13:17:00,57.3,45.2,29.70,WSW,248,13.6,13.6,64,0.00,,,0.00,VWS V14.00,2013-01-17 11:17:00,
2013-01-17 13:18:00,57.3,45.2,29.70,SSW,202,12.3,13.6,64,0.00,,,0.00,VWS V14.00,2013-01-17 11:18:00,
2013-01-17 13:19:00,57.3,45.7,29.71,SSW,202,12.3,13.6,65,0.00,,,0.00,VWS V14.00,2013-01-17 11:19:00,
2013-01-17 13:20:00,57.3,45.7,29.71,SSW,202,12.3,12.3,65,0.00,,,0.00,VWS V14.00,2013-01-17 11:20:00,
2013-01-17 13:22:00,57.5,45.4,29.70,SW,225,6.2,12.3,64,0.00,,,0.00,VWS V14.00,2013-01-17 11:22:00,
2013-01-17 13:23:00,57.7,45.2,29.70,SSW,202,6.0,12.3,63,0.00,,,0.00,VWS V14.00,2013-01-17 11:23:00,
2013-01-17 13:24:00,57.7,45.2,29.70,SSW,202,6.0,12.3,63,0.00,,,0.00,VWS V14.00,2013-01-17 11:24:00,
2013-01-17 13:25:00,57.9,45.4,29.70,South,180,10.2,10.2,63,0.00,,,0.00,VWS V14.00,2013-01-17 11:25:00,
2013-01-17 13:28:00,57.9,45.4,29.70,SSW,202,12.0,12.0,63,0.00,,,0.00,VWS V14.00,2013-01-17 11:28:00,
2013-01-17 13:29:00,58.1,45.6,29.70,West,270,3.8,12.0,63,0.00,,,0.00,VWS V14.00,2013-01-17 11:29:00,
2013-01-17 13:30:00,58.1,45.6,29.70,West,270,3.8,3.8,63,0.00,,,0.00,VWS V14.00,2013-01-17 11:30:00,
2013-01-17 13:33:00,58.1,45.6,29.70,WNW,292,5.5,5.5,63,0.00,,,0.00,VWS V14.00,2013-01-17 11:33:00,
2013-01-17 13:34:00,58.2,45.7,29.70,SW,225,6.7,6.7,63,0.00,,,0.00,VWS V14.00,2013-01-17 11:34:00,
2013-01-17 13:35:00,58.2,45.7,29.70,SW,225,6.7,6.7,63,0.00,,,0.00,VWS V14.00,2013-01-17 11:35:00,
2013-01-17 13:38:00,58.2,45.7,29.70,West,270,2.0,6.7,63,0.00,,,0.00,VWS V14.00,2013-01-17 11:38:00,
2013-01-17 13:39:00,58.1,45.6,29.70,SW,225,10.5,10.5,63,0.00,,,0.00,VWS V14.00,2013-01-17 11:39:00,
2013-01-17 13:40:00,58.2,45.7,29.70,SSW,202,6.4,6.4,63,0.00,,,0.00,VWS V14.00,2013-01-17 11:40:00,
2013-01-17 13:43:00,58.2,45.7,29.70,West,270,7.1,7.1,63,0.00,,,0.00,VWS V14.00,2013-01-17 11:43:00,
2013-01-17 13:44:00,58.2,45.7,29.70,SW,225,11.4,11.4,63,0.00,,,0.00,VWS V14.00,2013-01-17 11:44:00,
2013-01-17 13:45:00,58.2,45.7,29.70,SW,225,11.4,11.4,63,0.00,,,0.00,VWS V14.00,2013-01-17 11:45:00,
2013-01-17 13:48:00,58.4,45.5,29.70,SW,225,7.6,11.4,62,0.00,,,0.00,VWS V14.00,2013-01-17 11:48:00,
2013-01-17 13:49:00,58.4,45.5,29.70,SW,225,7.6,11.4,62,0.00,,,0.00,VWS V14.00,2013-01-17 11:49:00,
2013-01-17 13:50:00,58.2,45.3,29.70,SW,225,7.6,7.6,62,0.00,,,0.00,VWS V14.00,2013-01-17 11:50:00,
2013-01-17 13:53:00,58.1,45.2,29.70,West,270,2.9,7.6,62,0.00,,,0.00,VWS V14.00,2013-01-17 11:53:00,
2013-01-17 13:54:00,58.1,45.2,29.70,West,270,2.9,7.6,62,0.00,,,0.00,VWS V14.00,2013-01-17 11:54:00,
2013-01-17 13:55:00,57.9,45.4,29.70,SSE,158,0.0,0.0,63,0.00,,,0.00,VWS V14.00,2013-01-17 11:55:00,
2013-01-17 13:58:00,57.9,45.4,29.70,SE,135,6.2,6.2,63,0.00,,,0.00,VWS V14.00,2013-01-17 11:58:00,
2013-01-17 13:59:00,57.9,45.4,29.70,SE,135,6.2,6.2,63,0.00,,,0.00,VWS V14.00,2013-01-17 11:59:00,
2013-01-17 14:00:00,57.9,45.4,29.71,West,270,2.2,2.2,63,0.00,,,0.00,VWS V14.00,2013-01-17 12:00:00,
2013-01-17 14:03:00,57.7,45.2,29.71,SW,225,11.1,11.1,63,0.00,,,0.00,VWS V14.00,2013-01-17 12:03:00,
2013-01-17 14:04:00,57.7,45.2,29.71,SW,225,11.1,11.1,63,0.00,,,0.00,VWS V14.00,2013-01-17 12:04:00,
2013-01-17 14:06:00,57.7,45.2,29.71,North,0,0.0,0.0,63,0.00,,,0.00,VWS V14.00,2013-01-17 12:06:00,
2013-01-17 14:08:00,57.5,45.8,29.71,WSW,248,4.4,4.6,65,0.00,,,0.00,VWS V14.00,2013-01-17 12:08:00,
2013-01-17 14:09:00,57.5,45.8,29.71,WSW,248,4.4,4.6,65,0.00,,,0.00,VWS V14.00,2013-01-17 12:09:00,
2013-01-17 14:11:00,57.3,45.7,29.71,SW,225,4.6,4.6,65,0.00,,,0.00,VWS V14.00,2013-01-17 12:11:00,
2013-01-17 14:13:00,57.3,45.7,29.71,SSW,202,5.5,5.5,65,0.00,,,0.00,VWS V14.00,2013-01-17 12:13:00,
2013-01-17 14:14:00,57.3,46.0,29.71,SW,225,3.1,5.5,66,0.00,,,0.00,VWS V14.00,2013-01-17 12:14:00,
2013-01-17 14:16:00,57.3,46.0,29.71,SW,225,3.1,3.1,66,0.00,,,0.00,VWS V14.00,2013-01-17 12:16:00,
2013-01-17 14:18:00,57.3,46.0,29.71,SSW,202,7.8,7.8,66,0.00,,,0.00,VWS V14.00,2013-01-17 12:18:00,
2013-01-17 14:19:00,57.3,46.0,29.70,SSW,202,7.8,7.8,66,0.00,,,0.00,VWS V14.00,2013-01-17 12:19:00,
2013-01-17 14:21:00,57.3,46.0,29.70,SSW,202,7.8,7.8,66,0.00,,,0.00,VWS V14.00,2013-01-17 12:21:00,
2013-01-17 14:24:00,57.3,46.5,29.70,SW,225,5.1,8.2,67,0.00,,,0.00,VWS V14.00,2013-01-17 12:24:00,
2013-01-17 14:26:00,57.3,46.5,29.70,South,180,6.7,6.7,67,0.00,,,0.00,VWS V14.00,2013-01-17 12:26:00,
2013-01-17 14:29:00,57.3,46.5,29.70,SW,225,6.9,6.9,67,0.00,,,0.00,VWS V14.00,2013-01-17 12:29:00,
2013-01-17 14:31:00,57.3,46.5,29.70,South,180,2.9,2.9,67,0.00,,,0.00,VWS V14.00,2013-01-17 12:31:00,
2013-01-17 14:34:00,57.3,46.5,29.70,SSW,202,0.8,6.9,67,0.00,,,0.00,VWS V14.00,2013-01-17 12:34:00,
2013-01-17 14:36:00,57.0,46.2,29.70,SE,135,3.5,3.5,67,0.00,,,0.00,VWS V14.00,2013-01-17 12:36:00,
2013-01-17 14:39:00,57.0,46.2,29.70,SSW,202,7.3,7.3,67,0.00,,,0.00,VWS V14.00,2013-01-17 12:39:00,
2013-01-17 14:40:00,57.0,46.2,29.70,SSW,202,7.3,7.3,67,0.00,,,0.00,VWS V14.00,2013-01-17 12:40:00,
2013-01-17 14:41:00,57.0,46.6,29.70,SE,135,1.1,1.1,68,0.00,,,0.00,VWS V14.00,2013-01-17 12:41:00,
2013-01-17 14:44:00,57.0,46.6,29.70,South,180,3.8,3.8,68,0.00,,,0.00,VWS V14.00,2013-01-17 12:44:00,
2013-01-17 14:45:00,57.0,46.9,29.70,SW,225,2.0,3.8,69,0.00,,,0.00,VWS V14.00,2013-01-17 12:45:00,
2013-01-17 14:46:00,57.0,46.9,29.69,SSW,202,6.9,6.9,69,0.00,,,0.00,VWS V14.00,2013-01-17 12:46:00,
2013-01-17 14:49:00,57.0,46.9,29.70,SSE,158,2.2,6.9,69,0.00,,,0.00,VWS V14.00,2013-01-17 12:49:00,
2013-01-17 14:50:00,57.0,46.9,29.70,SSE,158,2.2,6.9,69,0.00,,,0.00,VWS V14.00,2013-01-17 12:50:00,
2013-01-17 14:51:00,57.0,46.9,29.70,SE,135,2.2,2.2,69,0.00,,,0.00,VWS V14.00,2013-01-17 12:51:00,
2013-01-17 14:54:00,57.0,46.9,29.69,SSW,202,8.2,8.2,69,0.00,,,0.00,VWS V14.00,2013-01-17 12:54:00,
2013-01-17 14:55:00,57.0,46.9,29.70,SSW,202,8.2,8.2,69,0.00,,,0.00,VWS V14.00,2013-01-17 12:55:00,
2013-01-17 14:56:00,57.0,46.9,29.70,South,180,1.1,1.1,69,0.00,,,0.00,VWS V14.00,2013-01-17 12:56:00,
2013-01-17 14:59:00,57.0,46.9,29.70,SW,225,2.4,2.4,69,0.00,,,0.00,VWS V14.00,2013-01-17 12:59:00,
2013-01-17 15:00:00,57.0,46.9,29.69,WSW,248,5.8,5.8,69,0.00,,,0.00,VWS V14.00,2013-01-17 13:00:00,
2013-01-17 15:01:00,57.0,47.3,29.69,WSW,248,6.9,6.9,70,0.00,,,0.00,VWS V14.00,2013-01-17 13:01:00,
2013-01-17 15:04:00,57.0,47.7,29.69,SSW,202,7.3,7.3,71,0.00,,,0.00,VWS V14.00,2013-01-17 13:04:00,
2013-01-17 15:05:00,57.0,47.7,29.69,SSW,202,7.3,7.3,71,0.00,,,0.00,VWS V14.00,2013-01-17 13:05:00,
2013-01-17 15:06:00,57.0,47.7,29.69,SW,225,3.8,7.3,71,0.00,,,0.00,VWS V14.00,2013-01-17 13:06:00,
2013-01-17 15:09:00,56.8,47.9,29.69,West,270,6.0,7.3,72,0.00,,,0.00,VWS V14.00,2013-01-17 13:09:00,
2013-01-17 15:10:00,56.8,47.9,29.69,West,270,6.0,7.3,72,0.00,,,0.00,VWS V14.00,2013-01-17 13:10:00,
2013-01-17 15:11:00,56.8,47.9,29.69,SSW,202,5.1,5.1,72,0.00,,,0.00,VWS V14.00,2013-01-17 13:11:00,
2013-01-17 15:14:00,56.8,48.2,29.69,SW,225,9.6,9.6,73,0.00,,,0.00,VWS V14.00,2013-01-17 13:14:00,
2013-01-17 15:15:00,56.8,48.2,29.69,SW,225,9.6,9.6,73,0.00,,,0.00,VWS V14.00,2013-01-17 13:15:00,
2013-01-17 15:16:00,56.8,48.2,29.69,SSW,202,3.8,9.6,73,0.00,,,0.00,VWS V14.00,2013-01-17 13:16:00,
2013-01-17 15:19:00,56.8,48.2,29.69,South,180,10.0,10.0,73,0.00,,,0.00,VWS V14.00,2013-01-17 13:19:00,
2013-01-17 15:20:00,56.8,48.2,29.69,South,180,10.0,10.0,73,0.00,,,0.00,VWS V14.00,2013-01-17 13:20:00,
2013-01-17 15:21:00,56.6,48.1,29.69,SW,225,5.8,5.8,73,0.00,,,0.00,VWS V14.00,2013-01-17 13:21:00,
2013-01-17 15:24:00,56.8,48.2,29.69,West,270,3.5,5.8,73,0.00,,,0.00,VWS V14.00,2013-01-17 13:24:00,
2013-01-17 15:25:00,56.8,48.2,29.69,West,270,3.5,5.8,73,0.00,,,0.00,VWS V14.00,2013-01-17 13:25:00,
2013-01-17 15:26:00,56.6,48.1,29.69,SW,225,3.5,3.5,73,0.00,,,0.00,VWS V14.00,2013-01-17 13:26:00,
2013-01-17 15:29:00,56.8,48.6,29.69,SSW,202,5.5,5.5,74,0.00,,,0.00,VWS V14.00,2013-01-17 13:29:00,
2013-01-17 15:30:00,56.8,48.6,29.69,SSW,202,5.5,5.5,74,0.00,,,0.00,VWS V14.00,2013-01-17 13:30:00,
2013-01-17 15:31:00,56.8,48.6,29.69,SSW,202,0.0,5.5,74,0.00,,,0.00,VWS V14.00,2013-01-17 13:31:00,
2013-01-17 15:34:00,56.8,48.6,29.69,SSW,202,4.6,5.5,74,0.00,,,0.00,VWS V14.00,2013-01-17 13:34:00,
2013-01-17 15:35:00,56.8,48.6,29.69,SSW,202,4.6,5.5,74,0.00,,,0.00,VWS V14.00,2013-01-17 13:35:00,
2013-01-17 15:36:00,56.8,48.6,29.69,WSW,248,2.0,2.0,74,0.00,,,0.00,VWS V14.00,2013-01-17 13:36:00,
2013-01-17 15:40:00,56.8,48.6,29.69,SW,225,3.5,3.5,74,0.00,,,0.00,VWS V14.00,2013-01-17 13:40:00,
2013-01-17 15:41:00,56.8,48.6,29.69,WNW,292,0.8,0.8,74,0.00,,,0.00,VWS V14.00,2013-01-17 13:41:00,
2013-01-17 15:45:00,56.8,49.0,29.69,ESE,112,1.1,4.0,75,0.00,,,0.00,VWS V14.00,2013-01-17 13:45:00,
2013-01-17 15:46:00,56.8,49.0,29.69,WSW,248,2.4,2.4,75,0.00,,,0.00,VWS V14.00,2013-01-17 13:46:00,
2013-01-17 15:50:00,56.8,49.0,29.69,South,180,4.0,4.0,75,0.00,,,0.00,VWS V14.00,2013-01-17 13:50:00,
2013-01-17 15:52:00,56.8,49.0,29.69,SSW,202,3.5,4.0,75,0.00,,,0.00,VWS V14.00,2013-01-17 13:52:00,
2013-01-17 15:55:00,56.8,49.0,29.69,SSW,202,2.4,4.0,75,0.00,,,0.00,VWS V14.00,2013-01-17 13:55:00,
2013-01-17 15:57:00,57.0,49.2,29.68,WSW,248,5.8,5.8,75,0.00,,,0.00,VWS V14.00,2013-01-17 13:57:00,
2013-01-17 16:00:00,57.0,49.2,29.69,SSW,202,6.2,6.2,75,0.00,,,0.00,VWS V14.00,2013-01-17 14:00:00,
2013-01-17 16:02:00,57.0,49.2,29.69,SSW,202,2.4,6.2,75,0.00,,,0.00,VWS V14.00,2013-01-17 14:02:00,
2013-01-17 16:05:00,57.0,49.2,29.69,SW,225,6.7,6.7,75,0.00,,,0.00,VWS V14.00,2013-01-17 14:05:00,
2013-01-17 16:07:00,57.0,49.2,29.69,WSW,248,8.5,8.5,75,0.00,,,0.00,VWS V14.00,2013-01-17 14:07:00,
2013-01-17 16:10:00,57.0,49.2,29.69,SSW,202,2.6,8.5,75,0.00,,,0.00,VWS V14.00,2013-01-17 14:10:00,
2013-01-17 16:12:00,57.0,49.2,29.69,South,180,5.8,5.8,75,0.00,,,0.00,VWS V14.00,2013-01-17 14:12:00,
2013-01-17 16:15:00,57.2,49.4,29.68,WSW,248,7.8,7.8,75,0.00,,,0.00,VWS V14.00,2013-01-17 14:15:00,
2013-01-17 16:17:00,57.3,49.5,29.68,South,180,4.4,7.8,75,0.00,,,0.00,VWS V14.00,2013-01-17 14:17:00,
2013-01-17 16:20:00,57.3,49.8,29.69,East,90,1.3,1.3,76,0.00,,,0.00,VWS V14.00,2013-01-17 14:20:00,
2013-01-17 16:21:00,57.3,49.8,29.69,East,90,1.3,1.3,76,0.00,,,0.00,VWS V14.00,2013-01-17 14:21:00,
2013-01-17 16:22:00,57.3,49.8,29.69,East,90,1.3,1.3,76,0.00,,,0.00,VWS V14.00,2013-01-17 14:22:00,
2013-01-17 16:25:00,57.3,49.5,29.69,West,270,2.6,2.6,75,0.00,,,0.00,VWS V14.00,2013-01-17 14:25:00,
2013-01-17 16:26:00,57.3,49.5,29.69,West,270,2.6,2.6,75,0.00,,,0.00,VWS V14.00,2013-01-17 14:26:00,
2013-01-17 16:27:00,57.3,49.5,29.69,West,270,2.6,2.6,75,0.00,,,0.00,VWS V14.00,2013-01-17 14:27:00,
2013-01-17 16:30:00,57.3,49.5,29.69,South,180,3.5,3.5,75,0.00,,,0.00,VWS V14.00,2013-01-17 14:30:00,
2013-01-17 16:31:00,57.3,49.5,29.69,South,180,3.5,3.5,75,0.00,,,0.00,VWS V14.00,2013-01-17 14:31:00,
2013-01-17 16:32:00,57.3,49.5,29.69,SSW,202,11.6,11.6,75,0.00,,,0.00,VWS V14.00,2013-01-17 14:32:00,
2013-01-17 16:35:00,57.3,49.1,29.69,SSW,202,17.0,17.0,74,0.00,,,0.00,VWS V14.00,2013-01-17 14:35:00,
2013-01-17 16:36:00,57.3,49.1,29.69,SSW,202,17.0,17.0,74,0.00,,,0.00,VWS V14.00,2013-01-17 14:36:00,
2013-01-17 16:37:00,57.3,49.1,29.69,WSW,248,9.1,17.0,74,0.00,,,0.00,VWS V14.00,2013-01-17 14:37:00,
2013-01-17 16:40:00,57.3,49.1,29.69,SW,225,15.8,15.8,74,0.00,,,0.00,VWS V14.00,2013-01-17 14:40:00,
2013-01-17 16:41:00,57.3,49.1,29.69,SW,225,15.8,15.8,74,0.00,,,0.00,VWS V14.00,2013-01-17 14:41:00,
2013-01-17 16:42:00,57.3,49.1,29.69,SW,225,15.8,15.8,74,0.00,,,0.00,VWS V14.00,2013-01-17 14:42:00,
2013-01-17 16:45:00,57.3,49.1,29.69,WSW,248,6.0,6.0,74,0.00,,,0.00,VWS V14.00,2013-01-17 14:45:00,
2013-01-17 16:46:00,57.3,49.1,29.69,WSW,248,6.0,6.0,74,0.00,,,0.00,VWS V14.00,2013-01-17 14:46:00,
2013-01-17 16:47:00,57.3,49.5,29.69,ESE,112,6.0,6.0,75,0.00,,,0.00,VWS V14.00,2013-01-17 14:47:00,
2013-01-17 16:50:00,57.3,49.5,29.69,SW,225,11.1,11.1,75,0.00,,,0.00,VWS V14.00,2013-01-17 14:50:00,
2013-01-17 16:51:00,57.3,49.5,29.69,SW,225,11.1,11.1,75,0.00,,,0.00,VWS V14.00,2013-01-17 14:51:00,
2013-01-17 16:52:00,57.0,49.5,29.69,SW,225,11.1,11.1,76,0.00,,,0.00,VWS V14.00,2013-01-17 14:52:00,
2013-01-17 16:55:00,57.0,49.9,29.69,South,180,6.7,6.7,77,0.00,,,0.00,VWS V14.00,2013-01-17 14:55:00,
2013-01-17 16:56:00,57.0,49.9,29.69,South,180,6.7,6.7,77,0.00,,,0.00,VWS V14.00,2013-01-17 14:56:00,
2013-01-17 16:57:00,57.0,49.9,29.69,ESE,112,10.5,10.5,77,0.00,,,0.00,VWS V14.00,2013-01-17 14:57:00,
2013-01-17 17:00:00,57.0,50.2,29.68,South,180,6.0,6.0,78,0.00,,,0.00,VWS V14.00,2013-01-17 15:00:00,
2013-01-17 17:01:00,57.0,50.2,29.68,SW,225,5.1,6.0,78,0.00,,,0.00,VWS V14.00,2013-01-17 15:01:00,
2013-01-17 17:02:00,57.0,50.2,29.68,SW,225,5.1,6.0,78,0.00,,,0.00,VWS V14.00,2013-01-17 15:02:00,
2013-01-17 17:05:00,57.0,50.2,29.68,South,180,1.3,1.3,78,0.00,,,0.00,VWS V14.00,2013-01-17 15:05:00,
2013-01-17 17:06:00,57.0,50.2,29.68,South,180,1.3,1.3,78,0.00,,,0.00,VWS V14.00,2013-01-17 15:06:00,
2013-01-17 17:07:00,57.0,50.2,29.68,South,180,1.3,1.3,78,0.00,,,0.00,VWS V14.00,2013-01-17 15:07:00,
2013-01-17 17:10:00,56.8,50.0,29.68,South,180,8.0,8.0,78,0.00,,,0.00,VWS V14.00,2013-01-17 15:10:00,
2013-01-17 17:11:00,56.8,50.0,29.68,South,180,8.0,8.0,78,0.00,,,0.00,VWS V14.00,2013-01-17 15:11:00,
2013-01-17 17:12:00,56.8,50.0,29.68,SSW,202,6.0,8.0,78,0.00,,,0.00,VWS V14.00,2013-01-17 15:12:00,
2013-01-17 17:15:00,56.8,50.0,29.68,East,90,14.3,14.3,78,0.00,,,0.00,VWS V14.00,2013-01-17 15:15:00,
2013-01-17 17:16:00,56.8,50.0,29.68,East,90,14.3,14.3,78,0.00,,,0.00,VWS V14.00,2013-01-17 15:16:00,
2013-01-17 17:17:00,56.8,49.7,29.68,SSW,202,10.5,14.3,77,0.00,,,0.00,VWS V14.00,2013-01-17 15:17:00,
2013-01-17 17:21:00,56.8,49.7,29.68,SE,135,1.3,1.3,77,0.00,,,0.00,VWS V14.00,2013-01-17 15:21:00,
2013-01-17 17:22:00,56.8,49.7,29.68,SE,135,1.3,1.3,77,0.00,,,0.00,VWS V14.00,2013-01-17 15:22:00,
2013-01-17 17:26:00,56.6,49.5,29.68,ESE,112,4.0,4.0,77,0.00,,,0.00,VWS V14.00,2013-01-17 15:26:00,
2013-01-17 17:27:00,56.4,49.3,29.68,NE,45,0.0,4.0,77,0.00,,,0.00,VWS V14.00,2013-01-17 15:27:00,
2013-01-17 17:31:00,56.4,49.3,29.68,South,180,8.0,8.0,77,0.00,,,0.00,VWS V14.00,2013-01-17 15:31:00,
2013-01-17 17:33:00,56.4,49.3,29.68,SW,225,11.1,11.1,77,0.00,,,0.00,VWS V14.00,2013-01-17 15:33:00,
2013-01-17 17:36:00,56.4,49.3,29.68,WSW,248,8.7,8.7,77,0.00,,,0.00,VWS V14.00,2013-01-17 15:36:00,
2013-01-17 17:38:00,56.4,49.3,29.68,WSW,248,8.7,8.7,77,0.00,,,0.00,VWS V14.00,2013-01-17 15:38:00,
2013-01-17 17:41:00,56.4,49.3,29.68,South,180,6.0,6.0,77,0.00,,,0.00,VWS V14.00,2013-01-17 15:41:00,
2013-01-17 17:43:00,56.4,49.3,29.68,SSW,202,4.6,6.0,77,0.00,,,0.00,VWS V14.00,2013-01-17 15:43:00,
2013-01-17 17:46:00,56.4,49.3,29.68,WSW,248,4.6,4.6,77,0.00,,,0.00,VWS V14.00,2013-01-17 15:46:00,
2013-01-17 17:47:00,56.4,49.3,29.68,WSW,248,4.6,4.6,77,0.00,,,0.00,VWS V14.00,2013-01-17 15:47:00,
2013-01-17 17:48:00,56.4,49.3,29.68,WSW,248,4.6,4.6,77,0.00,,,0.00,VWS V14.00,2013-01-17 15:48:00,
2013-01-17 17:51:00,56.3,49.2,29.68,WSW,248,0.8,0.8,77,0.00,,,0.00,VWS V14.00,2013-01-17 15:51:00,
2013-01-17 17:52:00,56.3,49.2,29.68,WSW,248,0.8,0.8,77,0.00,,,0.00,VWS V14.00,2013-01-17 15:52:00,
2013-01-17 17:53:00,56.3,49.2,29.68,South,180,0.8,0.8,77,0.00,,,0.00,VWS V14.00,2013-01-17 15:53:00,
2013-01-17 17:56:00,56.3,48.8,29.68,SSW,202,6.2,6.2,76,0.00,,,0.00,VWS V14.00,2013-01-17 15:56:00,
2013-01-17 17:57:00,56.3,48.8,29.68,SSW,202,6.2,6.2,76,0.00,,,0.00,VWS V14.00,2013-01-17 15:57:00,
2013-01-17 17:58:00,56.1,48.7,29.68,SSE,158,1.5,6.2,76,0.00,,,0.00,VWS V14.00,2013-01-17 15:58:00,
2013-01-17 18:01:00,56.1,48.7,29.68,SSW,202,4.0,4.0,76,0.00,,,0.00,VWS V14.00,2013-01-17 16:01:00,
2013-01-17 18:02:00,56.1,48.7,29.68,SSW,202,4.0,4.0,76,0.00,,,0.00,VWS V14.00,2013-01-17 16:02:00,
2013-01-17 18:03:00,56.1,48.7,29.68,East,90,0.8,4.0,76,0.00,,,0.00,VWS V14.00,2013-01-17 16:03:00,
2013-01-17 18:06:00,56.1,48.7,29.68,SW,225,6.4,6.4,76,0.00,,,0.00,VWS V14.00,2013-01-17 16:06:00,
2013-01-17 18:07:00,56.1,48.7,29.68,SW,225,6.4,6.4,76,0.00,,,0.00,VWS V14.00,2013-01-17 16:07:00,
2013-01-17 18:08:00,56.1,48.7,29.68,WSW,248,1.7,6.4,76,0.00,,,0.00,VWS V14.00,2013-01-17 16:08:00,
2013-01-17 18:11:00,56.1,48.7,29.68,SW,225,4.4,4.4,76,0.00,,,0.00,VWS V14.00,2013-01-17 16:11:00,
2013-01-17 18:12:00,56.1,48.7,29.68,SW,225,4.4,4.4,76,0.00,,,0.00,VWS V14.00,2013-01-17 16:12:00,
2013-01-17 18:13:00,56.1,48.7,29.68,SSE,158,6.9,6.9,76,0.00,,,0.00,VWS V14.00,2013-01-17 16:13:00,
2013-01-17 18:16:00,56.1,48.7,29.68,ENE,68,5.5,5.5,76,0.00,,,0.00,VWS V14.00,2013-01-17 16:16:00,
2013-01-17 18:17:00,56.1,48.7,29.68,ENE,68,5.5,5.5,76,0.00,,,0.00,VWS V14.00,2013-01-17 16:17:00,
2013-01-17 18:19:00,56.1,48.7,29.68,SW,225,3.8,5.5,76,0.00,,,0.00,VWS V14.00,2013-01-17 16:19:00,
2013-01-17 18:21:00,56.1,48.7,29.68,South,180,5.1,5.1,76,0.00,,,0.00,VWS V14.00,2013-01-17 16:21:00,
2013-01-17 18:22:00,56.1,48.7,29.68,South,180,5.1,5.1,76,0.00,,,0.00,VWS V14.00,2013-01-17 16:22:00,
2013-01-17 18:24:00,56.1,48.7,29.68,SW,225,4.4,5.1,76,0.00,,,0.00,VWS V14.00,2013-01-17 16:24:00,
2013-01-17 18:26:00,56.1,48.7,29.68,SW,225,2.2,2.2,76,0.00,,,0.00,VWS V14.00,2013-01-17 16:26:00,
2013-01-17 18:27:00,56.1,48.7,29.68,South,180,6.9,6.9,76,0.00,,,0.00,VWS V14.00,2013-01-17 16:27:00,
2013-01-17 18:29:00,56.1,48.7,29.68,South,180,6.9,6.9,76,0.00,,,0.00,VWS V14.00,2013-01-17 16:29:00,
2013-01-17 18:32:00,56.1,48.7,29.68,North,0,0.8,2.4,76,0.00,,,0.00,VWS V14.00,2013-01-17 16:32:00,
2013-01-17 18:34:00,56.1,48.7,29.68,SW,225,8.5,8.5,76,0.00,,,0.00,VWS V14.00,2013-01-17 16:34:00,
2013-01-17 18:37:00,56.1,49.0,29.68,SSW,202,2.6,2.6,77,0.00,,,0.00,VWS V14.00,2013-01-17 16:37:00,
2013-01-17 18:39:00,56.1,49.0,29.68,SSW,202,2.0,2.6,77,0.00,,,0.00,VWS V14.00,2013-01-17 16:39:00,
2013-01-17 18:42:00,56.3,49.2,29.68,SSW,202,6.0,6.0,77,0.00,,,0.00,VWS V14.00,2013-01-17 16:42:00,
2013-01-17 18:44:00,56.1,49.0,29.68,SW,225,5.1,6.0,77,0.00,,,0.00,VWS V14.00,2013-01-17 16:44:00,
2013-01-17 18:47:00,56.3,49.2,29.68,SE,135,2.9,2.9,77,0.00,,,0.00,VWS V14.00,2013-01-17 16:47:00,
2013-01-17 18:49:00,56.3,49.2,29.68,ESE,112,8.9,8.9,77,0.00,,,0.00,VWS V14.00,2013-01-17 16:49:00,
2013-01-17 18:52:00,56.3,49.5,29.68,SW,225,7.8,7.8,78,0.00,,,0.00,VWS V14.00,2013-01-17 16:52:00,
2013-01-17 18:54:00,56.3,49.5,29.68,WSW,248,3.5,7.8,78,0.00,,,0.00,VWS V14.00,2013-01-17 16:54:00,
2013-01-17 18:57:00,56.3,49.5,29.68,SW,225,7.8,7.8,78,0.00,,,0.00,VWS V14.00,2013-01-17 16:57:00,
2013-01-17 18:59:00,56.3,49.5,29.68,SW,225,7.8,7.8,78,0.00,,,0.00,VWS V14.00,2013-01-17 16:59:00,
2013-01-17 19:02:00,56.3,49.5,29.68,SW,225,11.4,11.4,78,0.00,,,0.00,VWS V14.00,2013-01-17 17:02:00,
2013-01-17 19:04:00,56.3,49.5,29.68,South,180,10.2,11.4,78,0.00,,,0.00,VWS V14.00,2013-01-17 17:04:00,
2013-01-17 19:07:00,56.3,49.5,29.68,SW,225,4.0,4.0,78,0.00,,,0.00,VWS V14.00,2013-01-17 17:07:00,
2013-01-17 19:08:00,56.3,49.5,29.68,SW,225,4.0,4.0,78,0.00,,,0.00,VWS V14.00,2013-01-17 17:08:00,
2013-01-17 19:09:00,56.4,49.6,29.68,South,180,8.2,8.2,78,0.00,,,0.00,VWS V14.00,2013-01-17 17:09:00,
2013-01-17 19:12:00,56.4,49.6,29.68,SE,135,1.7,11.1,78,0.00,,,0.00,VWS V14.00,2013-01-17 17:12:00,
2013-01-17 19:13:00,56.4,49.6,29.68,SE,135,1.7,11.1,78,0.00,,,0.00,VWS V14.00,2013-01-17 17:13:00,
2013-01-17 19:14:00,56.4,49.6,29.68,SW,225,4.9,11.1,78,0.00,,,0.00,VWS V14.00,2013-01-17 17:14:00,
2013-01-17 19:17:00,56.4,49.6,29.68,ESE,112,4.6,4.9,78,0.00,,,0.00,VWS V14.00,2013-01-17 17:17:00,
2013-01-17 19:18:00,56.4,49.6,29.68,ESE,112,4.6,4.9,78,0.00,,,0.00,VWS V14.00,2013-01-17 17:18:00,
2013-01-17 19:19:00,56.4,49.6,29.68,South,180,5.1,5.1,78,0.00,,,0.00,VWS V14.00,2013-01-17 17:19:00,
2013-01-17 19:22:00,56.4,49.6,29.68,South,180,6.0,6.0,78,0.00,,,0.00,VWS V14.00,2013-01-17 17:22:00,
2013-01-17 19:23:00,56.4,49.6,29.68,South,180,6.0,6.0,78,0.00,,,0.00,VWS V14.00,2013-01-17 17:23:00,
2013-01-17 19:24:00,56.4,49.6,29.68,South,180,6.0,6.0,78,0.00,,,0.00,VWS V14.00,2013-01-17 17:24:00,
2013-01-17 19:27:00,56.4,49.3,29.68,West,270,6.9,6.9,77,0.00,,,0.00,VWS V14.00,2013-01-17 17:27:00,
2013-01-17 19:28:00,56.4,49.3,29.68,West,270,6.9,6.9,77,0.00,,,0.00,VWS V14.00,2013-01-17 17:28:00,
2013-01-17 19:29:00,56.4,49.3,29.68,East,90,5.1,6.9,77,0.00,,,0.00,VWS V14.00,2013-01-17 17:29:00,
2013-01-17 19:32:00,56.4,49.3,29.68,South,180,2.9,5.1,77,0.00,,,0.00,VWS V14.00,2013-01-17 17:32:00,
2013-01-17 19:33:00,56.4,49.3,29.68,South,180,2.9,5.1,77,0.00,,,0.00,VWS V14.00,2013-01-17 17:33:00,
2013-01-17 19:34:00,56.4,49.3,29.68,WSW,248,0.0,5.1,77,0.00,,,0.00,VWS V14.00,2013-01-17 17:34:00,
2013-01-17 19:37:00,56.4,48.9,29.68,SW,225,4.4,4.4,76,0.00,,,0.00,VWS V14.00,2013-01-17 17:37:00,
2013-01-17 19:38:00,56.4,48.9,29.68,SW,225,4.4,4.4,76,0.00,,,0.00,VWS V14.00,2013-01-17 17:38:00,
2013-01-17 19:39:00,56.4,48.9,29.68,SW,225,14.5,14.5,76,0.00,,,0.00,VWS V14.00,2013-01-17 17:39:00,
2013-01-17 19:43:00,56.4,48.9,29.68,WSW,248,0.8,12.3,76,0.00,,,0.00,VWS V14.00,2013-01-17 17:43:00,
2013-01-17 19:44:00,56.4,48.9,29.68,South,180,4.6,12.3,76,0.00,,,0.00,VWS V14.00,2013-01-17 17:44:00,
2013-01-17 19:48:00,56.4,48.9,29.68,SW,225,8.9,8.9,76,0.00,,,0.00,VWS V14.00,2013-01-17 17:48:00,
2013-01-17 19:49:00,56.4,48.9,29.68,ESE,112,3.8,8.9,76,0.00,,,0.00,VWS V14.00,2013-01-17 17:49:00,
2013-01-17 19:53:00,56.4,48.9,29.68,SW,225,15.6,15.6,76,0.00,,,0.00,VWS V14.00,2013-01-17 17:53:00,
2013-01-17 19:54:00,56.4,48.9,29.68,SW,225,6.0,15.6,76,0.00,,,0.00,VWS V14.00,2013-01-17 17:54:00,
2013-01-17 19:58:00,56.4,48.9,29.68,North,0,2.9,8.5,76,0.00,,,0.00,VWS V14.00,2013-01-17 17:58:00,
2013-01-17 19:59:00,56.4,48.9,29.67,SW,225,4.6,8.5,76,0.00,,,0.00,VWS V14.00,2013-01-17 17:59:00,
2013-01-17 20:03:00,56.4,48.9,29.67,SW,225,8.7,8.7,76,0.00,,,0.00,VWS V14.00,2013-01-17 18:03:00,
2013-01-17 20:04:00,56.3,48.8,29.67,SE,135,8.5,8.7,76,0.00,,,0.00,VWS V14.00,2013-01-17 18:04:00,
2013-01-17 20:05:00,56.3,48.8,29.68,SE,135,8.5,8.7,76,0.00,,,0.00,VWS V14.00,2013-01-17 18:05:00,
2013-01-17 20:08:00,56.3,48.8,29.67,SSE,158,0.0,8.9,76,0.00,,,0.00,VWS V14.00,2013-01-17 18:08:00,
2013-01-17 20:09:00,56.3,48.8,29.68,SSE,158,0.0,8.9,76,0.00,,,0.00,VWS V14.00,2013-01-17 18:09:00,
2013-01-17 20:10:00,56.3,48.8,29.67,SSE,158,0.0,8.9,76,0.00,,,0.00,VWS V14.00,2013-01-17 18:10:00,
2013-01-17 20:13:00,56.3,48.8,29.67,WSW,248,2.6,3.3,76,0.00,,,0.00,VWS V14.00,2013-01-17 18:13:00,
2013-01-17 20:14:00,56.3,48.8,29.67,WSW,248,2.6,3.3,76,0.00,,,0.00,VWS V14.00,2013-01-17 18:14:00,
2013-01-17 20:15:00,56.3,48.8,29.67,South,180,2.2,3.3,76,0.00,,,0.00,VWS V14.00,2013-01-17 18:15:00,
2013-01-17 20:18:00,56.3,48.8,29.67,SSE,158,1.3,2.2,76,0.00,,,0.00,VWS V14.00,2013-01-17 18:18:00,
2013-01-17 20:19:00,56.3,48.8,29.67,SW,225,6.2,6.2,76,0.00,,,0.00,VWS V14.00,2013-01-17 18:19:00,
2013-01-17 20:20:00,56.3,48.8,29.67,SW,225,6.2,6.2,76,0.00,,,0.00,VWS V14.00,2013-01-17 18:20:00,
2013-01-17 20:23:00,56.3,48.8,29.68,SSW,202,4.4,4.4,76,0.00,,,0.00,VWS V14.00,2013-01-17 18:23:00,
2013-01-17 20:24:00,56.3,48.8,29.68,SSW,202,4.4,4.4,76,0.00,,,0.00,VWS V14.00,2013-01-17 18:24:00,
2013-01-17 20:25:00,56.3,48.8,29.67,SSW,202,4.4,4.4,76,0.00,,,0.00,VWS V14.00,2013-01-17 18:25:00,
2013-01-17 20:28:00,56.3,48.8,29.67,NNE,22,0.0,14.0,76,0.00,,,0.00,VWS V14.00,2013-01-17 18:28:00,
2013-01-17 20:29:00,56.3,48.8,29.67,NNE,22,0.0,14.0,76,0.00,,,0.00,VWS V14.00,2013-01-17 18:29:00,
2013-01-17 20:30:00,56.1,48.7,29.67,SW,225,3.3,14.0,76,0.00,,,0.00,VWS V14.00,2013-01-17 18:30:00,
2013-01-17 20:33:00,56.1,48.7,29.67,WSW,248,3.3,12.9,76,0.00,,,0.00,VWS V14.00,2013-01-17 18:33:00,
2013-01-17 20:34:00,56.1,48.7,29.67,WSW,248,3.3,12.9,76,0.00,,,0.00,VWS V14.00,2013-01-17 18:34:00,
2013-01-17 20:35:00,56.1,48.7,29.67,WSW,248,3.3,12.9,76,0.00,,,0.00,VWS V14.00,2013-01-17 18:35:00,
2013-01-17 20:38:00,56.3,48.8,29.67,SSW,202,6.7,6.7,76,0.00,,,0.00,VWS V14.00,2013-01-17 18:38:00,
2013-01-17 20:39:00,56.3,48.8,29.67,SSW,202,6.7,6.7,76,0.00,,,0.00,VWS V14.00,2013-01-17 18:39:00,
2013-01-17 20:40:00,56.3,48.8,29.67,SSW,202,6.7,6.7,76,0.00,,,0.00,VWS V14.00,2013-01-17 18:40:00,
2013-01-17 20:44:00,56.3,48.8,29.67,SW,225,8.7,8.7,76,0.00,,,0.00,VWS V14.00,2013-01-17 18:44:00,
2013-01-17 20:45:00,56.1,48.7,29.67,SE,135,0.0,8.7,76,0.00,,,0.00,VWS V14.00,2013-01-17 18:45:00,
2013-01-17 20:49:00,56.1,48.7,29.67,WSW,248,3.1,3.8,76,0.00,,,0.00,VWS V14.00,2013-01-17 18:49:00,
2013-01-17 20:50:00,56.1,48.7,29.66,WSW,248,3.1,3.8,76,0.00,,,0.00,VWS V14.00,2013-01-17 18:50:00,
2013-01-17 20:54:00,56.1,49.0,29.66,South,180,9.1,9.1,77,0.00,,,0.00,VWS V14.00,2013-01-17 18:54:00,
2013-01-17 20:55:00,56.1,49.0,29.66,South,180,9.1,9.1,77,0.00,,,0.00,VWS V14.00,2013-01-17 18:55:00,
2013-01-17 20:59:00,56.1,49.0,29.67,SW,225,6.0,6.0,77,0.00,,,0.00,VWS V14.00,2013-01-17 18:59:00,
2013-01-17 21:00:00,56.1,49.0,29.66,SSW,202,3.8,6.0,77,0.00,,,0.00,VWS V14.00,2013-01-17 19:00:00,
2013-01-17 21:04:00,56.1,49.3,29.67,SW,225,2.9,3.8,78,0.00,,,0.00,VWS V14.00,2013-01-17 19:04:00,
2013-01-17 21:05:00,56.1,49.3,29.66,East,90,4.0,4.0,78,0.00,,,0.00,VWS V14.00,2013-01-17 19:05:00,
2013-01-17 21:09:00,56.1,49.3,29.66,ESE,112,6.4,6.4,78,0.00,,,0.00,VWS V14.00,2013-01-17 19:09:00,
2013-01-17 21:10:00,56.1,49.3,29.66,ESE,112,6.4,6.4,78,0.00,,,0.00,VWS V14.00,2013-01-17 19:10:00,
2013-01-17 21:14:00,56.1,49.3,29.66,WSW,248,8.5,8.5,78,0.00,,,0.00,VWS V14.00,2013-01-17 19:14:00,
2013-01-17 21:15:00,56.1,49.3,29.66,SSW,202,5.3,8.5,78,0.00,,,0.00,VWS V14.00,2013-01-17 19:15:00,
2013-01-17 21:19:00,56.1,49.3,29.66,South,180,5.5,9.3,78,0.00,,,0.00,VWS V14.00,2013-01-17 19:19:00,
2013-01-17 21:20:00,56.1,49.3,29.66,South,180,5.5,9.3,78,0.00,,,0.00,VWS V14.00,2013-01-17 19:20:00,
2013-01-17 21:24:00,56.1,49.3,29.66,SSW,202,1.5,4.6,78,0.00,,,0.00,VWS V14.00,2013-01-17 19:24:00,
2013-01-17 21:25:00,56.1,49.3,29.66,SSW,202,1.5,4.6,78,0.00,,,0.00,VWS V14.00,2013-01-17 19:25:00,
2013-01-17 21:29:00,56.1,49.3,29.66,WSW,248,1.3,5.1,78,0.00,,,0.00,VWS V14.00,2013-01-17 19:29:00,
2013-01-17 21:30:00,56.1,49.7,29.66,South,180,2.0,5.1,79,0.00,,,0.00,VWS V14.00,2013-01-17 19:30:00,
2013-01-17 21:34:00,56.1,49.7,29.66,SE,135,2.9,2.9,79,0.00,,,0.00,VWS V14.00,2013-01-17 19:34:00,
2013-01-17 21:35:00,56.1,49.7,29.66,SE,135,2.9,2.9,79,0.00,,,0.00,VWS V14.00,2013-01-17 19:35:00,
2013-01-17 21:39:00,56.1,49.7,29.66,WSW,248,5.1,5.8,79,0.00,,,0.00,VWS V14.00,2013-01-17 19:39:00,
2013-01-17 21:40:00,56.1,49.7,29.66,WSW,248,5.1,5.8,79,0.00,,,0.00,VWS V14.00,2013-01-17 19:40:00,
2013-01-17 21:44:00,55.9,49.5,29.66,SSE,158,2.9,5.5,79,0.00,,,0.00,VWS V14.00,2013-01-17 19:44:00,
2013-01-17 21:45:00,55.9,49.5,29.66,South,180,2.0,5.5,79,0.00,,,0.00,VWS V14.00,2013-01-17 19:45:00,
2013-01-17 21:46:00,55.9,49.5,29.66,South,180,2.0,2.0,79,0.00,,,0.00,VWS V14.00,2013-01-17 19:46:00,
2013-01-17 21:49:00,55.9,49.5,29.66,SSE,158,4.2,11.8,79,0.00,,,0.00,VWS V14.00,2013-01-17 19:49:00,
2013-01-17 21:50:00,55.9,49.5,29.66,SSW,202,1.1,11.8,79,0.00,,,0.00,VWS V14.00,2013-01-17 19:50:00,
2013-01-17 21:51:00,55.9,49.5,29.66,SSW,202,1.1,1.1,79,0.00,,,0.00,VWS V14.00,2013-01-17 19:51:00,
2013-01-17 21:54:00,55.9,49.2,29.66,SW,225,11.1,11.1,78,0.00,,,0.00,VWS V14.00,2013-01-17 19:54:00,
2013-01-17 21:55:00,55.9,49.2,29.66,SSW,202,2.2,2.2,78,0.00,,,0.00,VWS V14.00,2013-01-17 19:55:00,
2013-01-17 21:56:00,55.9,49.2,29.66,SSW,202,2.2,2.2,78,0.00,,,0.00,VWS V14.00,2013-01-17 19:56:00,
2013-01-17 21:59:00,55.9,49.2,29.66,SE,135,1.7,4.9,78,0.00,,,0.00,VWS V14.00,2013-01-17 19:59:00,
2013-01-17 22:00:00,55.9,49.2,29.66,SE,135,1.7,4.9,78,0.00,,,0.00,VWS V14.00,2013-01-17 20:00:00,
2013-01-17 22:01:00,55.9,49.2,29.66,SE,135,1.7,1.7,78,0.00,,,0.00,VWS V14.00,2013-01-17 20:01:00,
2013-01-17 22:04:00,55.9,49.2,29.65,West,270,5.3,5.3,78,0.00,,,0.00,VWS V14.00,2013-01-17 20:04:00,
2013-01-17 22:05:00,55.9,49.2,29.65,West,270,5.3,5.3,78,0.00,,,0.00,VWS V14.00,2013-01-17 20:05:00,
2013-01-17 22:06:00,55.9,48.8,29.66,SW,225,6.2,6.2,77,0.00,,,0.00,VWS V14.00,2013-01-17 20:06:00,
2013-01-17 22:09:00,55.9,48.8,29.65,SSE,158,6.7,6.7,77,0.00,,,0.00,VWS V14.00,2013-01-17 20:09:00,
2013-01-17 22:10:00,55.9,48.8,29.65,SSE,158,6.7,6.7,77,0.00,,,0.00,VWS V14.00,2013-01-17 20:10:00,
2013-01-17 22:11:00,55.9,48.8,29.65,South,180,6.2,6.2,77,0.00,,,0.00,VWS V14.00,2013-01-17 20:11:00,
2013-01-17 22:14:00,55.9,48.8,29.65,SW,225,3.8,6.2,77,0.00,,,0.00,VWS V14.00,2013-01-17 20:14:00,
2013-01-17 22:15:00,55.9,48.8,29.65,SW,225,3.8,3.8,77,0.00,,,0.00,VWS V14.00,2013-01-17 20:15:00,
2013-01-17 22:16:00,55.9,48.8,29.65,SW,225,3.8,3.8,77,0.00,,,0.00,VWS V14.00,2013-01-17 20:16:00,
2013-01-17 22:19:00,55.9,48.5,29.65,SSE,158,1.1,6.4,76,0.00,,,0.00,VWS V14.00,2013-01-17 20:19:00,
2013-01-17 22:20:00,55.9,48.5,29.65,ESE,112,6.4,6.4,76,0.00,,,0.00,VWS V14.00,2013-01-17 20:20:00,
2013-01-17 22:21:00,55.9,48.5,29.65,ESE,112,6.4,6.4,76,0.00,,,0.00,VWS V14.00,2013-01-17 20:21:00,
2013-01-17 22:24:00,55.9,48.5,29.65,SW,225,3.8,6.4,76,0.00,,,0.00,VWS V14.00,2013-01-17 20:24:00,
2013-01-17 22:25:00,55.9,48.5,29.65,SSW,202,2.2,2.2,76,0.00,,,0.00,VWS V14.00,2013-01-17 20:25:00,
2013-01-17 22:26:00,55.9,48.5,29.65,SSW,202,2.2,2.2,76,0.00,,,0.00,VWS V14.00,2013-01-17 20:26:00,
2013-01-17 22:29:00,55.9,48.5,29.65,ESE,112,2.9,7.6,76,0.00,,,0.00,VWS V14.00,2013-01-17 20:29:00,
2013-01-17 22:30:00,55.9,48.5,29.65,ESE,112,2.9,2.9,76,0.00,,,0.00,VWS V14.00,2013-01-17 20:30:00,
2013-01-17 22:31:00,55.9,48.5,29.65,ESE,112,2.9,2.9,76,0.00,,,0.00,VWS V14.00,2013-01-17 20:31:00,
2013-01-17 22:34:00,55.9,48.5,29.65,West,270,2.2,2.9,76,0.00,,,0.00,VWS V14.00,2013-01-17 20:34:00,
2013-01-17 22:35:00,56.1,48.7,29.65,SSW,202,3.1,3.1,76,0.00,,,0.00,VWS V14.00,2013-01-17 20:35:00,
2013-01-17 22:36:00,56.1,48.7,29.65,SSW,202,3.1,3.1,76,0.00,,,0.00,VWS V14.00,2013-01-17 20:36:00,
2013-01-17 22:40:00,56.1,48.7,29.64,WSW,248,7.1,7.1,76,0.00,,,0.00,VWS V14.00,2013-01-17 20:40:00,
2013-01-17 22:41:00,56.1,48.7,29.64,WSW,248,12.3,12.3,76,0.00,,,0.00,VWS V14.00,2013-01-17 20:41:00,
2013-01-17 22:45:00,56.1,48.7,29.64,SW,225,9.1,12.3,76,0.00,,,0.00,VWS V14.00,2013-01-17 20:45:00,
2013-01-17 22:46:00,56.1,48.7,29.64,SW,225,9.1,9.1,76,0.00,,,0.00,VWS V14.00,2013-01-17 20:46:00,
2013-01-17 22:50:00,56.3,49.2,29.64,SE,135,4.9,9.1,77,0.00,,,0.00,VWS V14.00,2013-01-17 20:50:00,
2013-01-17 22:51:00,56.3,49.2,29.64,SSE,158,5.1,5.1,77,0.00,,,0.00,VWS V14.00,2013-01-17 20:51:00,
2013-01-17 22:55:00,56.3,49.5,29.64,WSW,248,5.1,5.1,78,0.00,,,0.00,VWS V14.00,2013-01-17 20:55:00,
2013-01-17 22:56:00,56.3,49.5,29.64,WSW,248,11.6,11.6,78,0.00,,,0.00,VWS V14.00,2013-01-17 20:56:00,
2013-01-17 23:00:00,56.3,49.5,29.63,South,180,10.7,11.6,78,0.00,,,0.00,VWS V14.00,2013-01-17 21:00:00,
2013-01-17 23:01:00,56.3,49.5,29.63,South,180,10.7,10.7,78,0.00,,,0.00,VWS V14.00,2013-01-17 21:01:00,
2013-01-17 23:05:00,56.3,49.5,29.63,SE,135,7.3,10.7,78,0.00,,,0.00,VWS V14.00,2013-01-17 21:05:00,
2013-01-17 23:06:00,56.3,49.5,29.63,NNW,338,2.0,2.0,78,0.00,,,0.00,VWS V14.00,2013-01-17 21:06:00,
2013-01-17 23:10:00,56.3,49.5,29.63,East,90,20.8,20.8,78,0.00,,,0.00,VWS V14.00,2013-01-17 21:10:00,
2013-01-17 23:11:00,56.3,49.5,29.63,East,90,20.8,20.8,78,0.00,,,0.00,VWS V14.00,2013-01-17 21:11:00,
2013-01-17 23:15:00,56.3,49.5,29.63,West,270,2.4,2.4,78,0.00,,,0.00,VWS V14.00,2013-01-17 21:15:00,
2013-01-17 23:16:00,56.3,49.5,29.63,West,270,2.4,2.4,78,0.00,,,0.00,VWS V14.00,2013-01-17 21:16:00,
2013-01-17 23:17:00,56.3,49.5,29.63,SSW,202,9.8,9.8,78,0.00,,,0.00,VWS V14.00,2013-01-17 21:17:00,
2013-01-17 23:20:00,56.3,49.5,29.63,WSW,248,7.3,7.3,78,0.00,,,0.00,VWS V14.00,2013-01-17 21:20:00,
2013-01-17 23:21:00,56.3,49.5,29.63,WSW,248,7.3,7.3,78,0.00,,,0.00,VWS V14.00,2013-01-17 21:21:00,
2013-01-17 23:22:00,56.3,49.5,29.63,WSW,248,7.3,7.3,78,0.00,,,0.00,VWS V14.00,2013-01-17 21:22:00,
2013-01-17 23:25:00,56.3,49.5,29.63,SW,225,13.1,13.1,78,0.00,,,0.00,VWS V14.00,2013-01-17 21:25:00,
2013-01-17 23:26:00,56.3,49.5,29.63,SW,225,13.1,13.1,78,0.00,,,0.00,VWS V14.00,2013-01-17 21:26:00,
2013-01-17 23:27:00,56.3,49.5,29.63,SW,225,13.1,13.1,78,0.00,,,0.00,VWS V14.00,2013-01-17 21:27:00,
2013-01-17 23:30:00,56.3,49.5,29.63,West,270,1.7,1.7,78,0.00,,,0.00,VWS V14.00,2013-01-17 21:30:00,
2013-01-17 23:31:00,56.4,50.0,29.63,SSW,202,10.0,10.0,79,0.00,,,0.00,VWS V14.00,2013-01-17 21:31:00,
2013-01-17 23:32:00,56.4,50.0,29.63,SSW,202,10.0,10.0,79,0.00,,,0.00,VWS V14.00,2013-01-17 21:32:00,
2013-01-17 23:35:00,56.4,50.0,29.62,ESE,112,2.2,2.2,79,0.00,,,0.00,VWS V14.00,2013-01-17 21:35:00,
2013-01-17 23:36:00,56.4,50.0,29.62,ESE,112,2.2,2.2,79,0.00,,,0.00,VWS V14.00,2013-01-17 21:36:00,
2013-01-17 23:37:00,56.4,50.0,29.62,ESE,112,2.2,2.2,79,0.00,,,0.00,VWS V14.00,2013-01-17 21:37:00,
2013-01-17 23:40:00,56.4,50.0,29.62,SSW,202,10.5,10.5,79,0.00,,,0.00,VWS V14.00,2013-01-17 21:40:00,
2013-01-17 23:41:00,56.4,50.0,29.62,SSW,202,10.5,10.5,79,0.00,,,0.00,VWS V14.00,2013-01-17 21:41:00,
2013-01-17 23:42:00,56.4,50.0,29.62,SSW,202,10.5,10.5,79,0.00,,,0.00,VWS V14.00,2013-01-17 21:42:00,
2013-01-17 23:46:00,56.4,50.0,29.62,WSW,248,4.2,4.2,79,0.00,,,0.00,VWS V14.00,2013-01-17 21:46:00,
2013-01-17 23:47:00,56.4,50.0,29.62,SE,135,12.3,12.3,79,0.00,,,0.00,VWS V14.00,2013-01-17 21:47:00,
2013-01-17 23:51:00,56.4,50.0,29.62,SE,135,0.6,0.6,79,0.00,,,0.00,VWS V14.00,2013-01-17 21:51:00,
2013-01-17 23:52:00,56.4,50.0,29.62,SE,135,0.6,0.6,79,0.00,,,0.00,VWS V14.00,2013-01-17 21:52:00,
2013-01-17 23:56:00,56.4,50.0,29.62,South,180,10.9,10.9,79,0.00,,,0.00,VWS V14.00,2013-01-17 21:56:00,
2013-01-17 23:57:00,56.4,50.0,29.62,South,180,10.9,10.9,79,0.00,,,0.00,VWS V14.00,2013-01-17 21:57:00,